<?xml version="1.0" encoding="UTF-8" standalone="no" ?>
<gpx xmlns="http://www.topografix.com/GPX/1/1" xmlns:xsi="http://www.w3.org/2001/XMLSchema-instance" xsi:schemaLocation="http://www.topografix.com/GPX/1/1 http://www.topografix.com/GPX/1/1/gpx.xsd" version="1.1" creator="VisuGPX - https://www.visugpx.com">
  <metadata>
    <name>SC à Saint Macaire 2018</name>
    <desc><![CDATA[Des vignes, encore des vignes, et toujours des vignes ...]]></desc>
  </metadata>
  <trk>
    <name><![CDATA[2018-05-13 12:23:32]]></name>
    <trkseg>
      <trkpt lat="44.56362" lon="-0.22472">
        <ele>13.6</ele>
        <time>2018-05-13T06:54:36Z</time>
      </trkpt>
      <trkpt lat="44.56363" lon="-0.22471">
        <ele>13.6</ele>
        <time>2018-05-13T06:54:37Z</time>
      </trkpt>
      <trkpt lat="44.56365" lon="-0.22468">
        <ele>13.6</ele>
        <time>2018-05-13T06:54:59Z</time>
      </trkpt>
      <trkpt lat="44.56364" lon="-0.22467">
        <ele>13.6</ele>
        <time>2018-05-13T06:55:26Z</time>
      </trkpt>
      <trkpt lat="44.56364" lon="-0.22468">
        <ele>13.6</ele>
        <time>2018-05-13T06:55:50Z</time>
      </trkpt>
      <trkpt lat="44.56368" lon="-0.22468">
        <ele>13.6</ele>
        <time>2018-05-13T06:56:16Z</time>
      </trkpt>
      <trkpt lat="44.56367" lon="-0.22464">
        <ele>13.6</ele>
        <time>2018-05-13T06:56:38Z</time>
      </trkpt>
      <trkpt lat="44.56366" lon="-0.22467">
        <ele>13.6</ele>
        <time>2018-05-13T06:57:04Z</time>
      </trkpt>
      <trkpt lat="44.56365" lon="-0.22468">
        <ele>13.12</ele>
        <time>2018-05-13T06:57:28Z</time>
      </trkpt>
      <trkpt lat="44.56365" lon="-0.22468">
        <ele>13.12</ele>
        <time>2018-05-13T06:57:48Z</time>
      </trkpt>
      <trkpt lat="44.56366" lon="-0.22473">
        <ele>13.12</ele>
        <time>2018-05-13T06:58:16Z</time>
      </trkpt>
      <trkpt lat="44.56366" lon="-0.22471">
        <ele>13.12</ele>
        <time>2018-05-13T06:58:46Z</time>
      </trkpt>
      <trkpt lat="44.56365" lon="-0.22469">
        <ele>11.67</ele>
        <time>2018-05-13T06:59:05Z</time>
      </trkpt>
      <trkpt lat="44.56367" lon="-0.22467">
        <ele>12.63</ele>
        <time>2018-05-13T06:59:22Z</time>
      </trkpt>
      <trkpt lat="44.56364" lon="-0.22465">
        <ele>12.63</ele>
        <time>2018-05-13T06:59:35Z</time>
      </trkpt>
      <trkpt lat="44.56363" lon="-0.22464">
        <ele>12.63</ele>
        <time>2018-05-13T06:59:37Z</time>
      </trkpt>
      <trkpt lat="44.56355" lon="-0.22452">
        <ele>12.63</ele>
        <time>2018-05-13T06:59:48Z</time>
      </trkpt>
      <trkpt lat="44.56342" lon="-0.22439">
        <ele>12.63</ele>
        <time>2018-05-13T07:00:03Z</time>
      </trkpt>
      <trkpt lat="44.56325" lon="-0.22427">
        <ele>13.12</ele>
        <time>2018-05-13T07:00:19Z</time>
      </trkpt>
      <trkpt lat="44.56309" lon="-0.22416">
        <ele>13.12</ele>
        <time>2018-05-13T07:00:33Z</time>
      </trkpt>
      <trkpt lat="44.56294" lon="-0.22407">
        <ele>13.12</ele>
        <time>2018-05-13T07:00:47Z</time>
      </trkpt>
      <trkpt lat="44.56295" lon="-0.22406">
        <ele>13.12</ele>
        <time>2018-05-13T07:00:48Z</time>
      </trkpt>
      <trkpt lat="44.56294" lon="-0.22384">
        <ele>13.12</ele>
        <time>2018-05-13T07:01:05Z</time>
      </trkpt>
      <trkpt lat="44.56296" lon="-0.22377">
        <ele>13.12</ele>
        <time>2018-05-13T07:01:11Z</time>
      </trkpt>
      <trkpt lat="44.56297" lon="-0.22369">
        <ele>13.12</ele>
        <time>2018-05-13T07:01:16Z</time>
      </trkpt>
      <trkpt lat="44.56304" lon="-0.22345">
        <ele>13.12</ele>
        <time>2018-05-13T07:01:34Z</time>
      </trkpt>
      <trkpt lat="44.56306" lon="-0.22339">
        <ele>13.12</ele>
        <time>2018-05-13T07:01:39Z</time>
      </trkpt>
      <trkpt lat="44.5631" lon="-0.2232">
        <ele>13.6</ele>
        <time>2018-05-13T07:01:55Z</time>
      </trkpt>
      <trkpt lat="44.56313" lon="-0.22297">
        <ele>13.6</ele>
        <time>2018-05-13T07:02:08Z</time>
      </trkpt>
      <trkpt lat="44.56316" lon="-0.22278">
        <ele>13.6</ele>
        <time>2018-05-13T07:02:22Z</time>
      </trkpt>
      <trkpt lat="44.56317" lon="-0.22252">
        <ele>14.08</ele>
        <time>2018-05-13T07:02:37Z</time>
      </trkpt>
      <trkpt lat="44.56315" lon="-0.22213">
        <ele>13.12</ele>
        <time>2018-05-13T07:02:55Z</time>
      </trkpt>
      <trkpt lat="44.56321" lon="-0.22183">
        <ele>13.12</ele>
        <time>2018-05-13T07:03:11Z</time>
      </trkpt>
      <trkpt lat="44.56331" lon="-0.22152">
        <ele>13.12</ele>
        <time>2018-05-13T07:03:28Z</time>
      </trkpt>
      <trkpt lat="44.56344" lon="-0.22115">
        <ele>13.12</ele>
        <time>2018-05-13T07:03:48Z</time>
      </trkpt>
      <trkpt lat="44.56353" lon="-0.2209">
        <ele>13.12</ele>
        <time>2018-05-13T07:04:03Z</time>
      </trkpt>
      <trkpt lat="44.56363" lon="-0.22069">
        <ele>13.12</ele>
        <time>2018-05-13T07:04:17Z</time>
      </trkpt>
      <trkpt lat="44.56372" lon="-0.22047">
        <ele>13.12</ele>
        <time>2018-05-13T07:04:31Z</time>
      </trkpt>
      <trkpt lat="44.56377" lon="-0.22035">
        <ele>13.12</ele>
        <time>2018-05-13T07:04:38Z</time>
      </trkpt>
      <trkpt lat="44.56383" lon="-0.2202">
        <ele>13.12</ele>
        <time>2018-05-13T07:04:51Z</time>
      </trkpt>
      <trkpt lat="44.56389" lon="-0.22006">
        <ele>13.12</ele>
        <time>2018-05-13T07:05:03Z</time>
      </trkpt>
      <trkpt lat="44.56397" lon="-0.21982">
        <ele>13.6</ele>
        <time>2018-05-13T07:05:19Z</time>
      </trkpt>
      <trkpt lat="44.564" lon="-0.2196">
        <ele>13.6</ele>
        <time>2018-05-13T07:05:31Z</time>
      </trkpt>
      <trkpt lat="44.56401" lon="-0.21947">
        <ele>13.6</ele>
        <time>2018-05-13T07:05:39Z</time>
      </trkpt>
      <trkpt lat="44.5641" lon="-0.21917">
        <ele>13.6</ele>
        <time>2018-05-13T07:05:57Z</time>
      </trkpt>
      <trkpt lat="44.56418" lon="-0.2189">
        <ele>13.6</ele>
        <time>2018-05-13T07:06:15Z</time>
      </trkpt>
      <trkpt lat="44.56422" lon="-0.21876">
        <ele>13.6</ele>
        <time>2018-05-13T07:06:28Z</time>
      </trkpt>
      <trkpt lat="44.56427" lon="-0.21859">
        <ele>13.6</ele>
        <time>2018-05-13T07:06:43Z</time>
      </trkpt>
      <trkpt lat="44.56427" lon="-0.21859">
        <ele>13.6</ele>
        <time>2018-05-13T07:06:44Z</time>
      </trkpt>
      <trkpt lat="44.56434" lon="-0.21833">
        <ele>13.6</ele>
        <time>2018-05-13T07:07:03Z</time>
      </trkpt>
      <trkpt lat="44.56435" lon="-0.21832">
        <ele>13.6</ele>
        <time>2018-05-13T07:07:04Z</time>
      </trkpt>
      <trkpt lat="44.56437" lon="-0.21827">
        <ele>13.6</ele>
        <time>2018-05-13T07:07:08Z</time>
      </trkpt>
      <trkpt lat="44.56443" lon="-0.21801">
        <ele>13.6</ele>
        <time>2018-05-13T07:07:23Z</time>
      </trkpt>
      <trkpt lat="44.56447" lon="-0.21771">
        <ele>13.6</ele>
        <time>2018-05-13T07:07:40Z</time>
      </trkpt>
      <trkpt lat="44.56452" lon="-0.21743">
        <ele>13.6</ele>
        <time>2018-05-13T07:07:56Z</time>
      </trkpt>
      <trkpt lat="44.56461" lon="-0.21718">
        <ele>13.6</ele>
        <time>2018-05-13T07:08:11Z</time>
      </trkpt>
      <trkpt lat="44.56464" lon="-0.21709">
        <ele>13.6</ele>
        <time>2018-05-13T07:08:17Z</time>
      </trkpt>
      <trkpt lat="44.56473" lon="-0.21686">
        <ele>13.6</ele>
        <time>2018-05-13T07:08:31Z</time>
      </trkpt>
      <trkpt lat="44.56477" lon="-0.21678">
        <ele>13.6</ele>
        <time>2018-05-13T07:08:37Z</time>
      </trkpt>
      <trkpt lat="44.56486" lon="-0.21659">
        <ele>13.6</ele>
        <time>2018-05-13T07:08:51Z</time>
      </trkpt>
      <trkpt lat="44.56497" lon="-0.21634">
        <ele>13.6</ele>
        <time>2018-05-13T07:09:09Z</time>
      </trkpt>
      <trkpt lat="44.565" lon="-0.21625">
        <ele>13.6</ele>
        <time>2018-05-13T07:09:15Z</time>
      </trkpt>
      <trkpt lat="44.56503" lon="-0.21617">
        <ele>13.6</ele>
        <time>2018-05-13T07:09:20Z</time>
      </trkpt>
      <trkpt lat="44.56514" lon="-0.21585">
        <ele>13.6</ele>
        <time>2018-05-13T07:09:40Z</time>
      </trkpt>
      <trkpt lat="44.56523" lon="-0.21565">
        <ele>13.6</ele>
        <time>2018-05-13T07:09:54Z</time>
      </trkpt>
      <trkpt lat="44.56532" lon="-0.21539">
        <ele>14.08</ele>
        <time>2018-05-13T07:10:11Z</time>
      </trkpt>
      <trkpt lat="44.56536" lon="-0.21532">
        <ele>14.08</ele>
        <time>2018-05-13T07:10:17Z</time>
      </trkpt>
      <trkpt lat="44.56536" lon="-0.21529">
        <ele>14.08</ele>
        <time>2018-05-13T07:10:19Z</time>
      </trkpt>
      <trkpt lat="44.5654" lon="-0.21516">
        <ele>14.08</ele>
        <time>2018-05-13T07:10:27Z</time>
      </trkpt>
      <trkpt lat="44.5655" lon="-0.21493">
        <ele>14.08</ele>
        <time>2018-05-13T07:10:43Z</time>
      </trkpt>
      <trkpt lat="44.5656" lon="-0.21465">
        <ele>14.08</ele>
        <time>2018-05-13T07:11:02Z</time>
      </trkpt>
      <trkpt lat="44.56566" lon="-0.21442">
        <ele>14.08</ele>
        <time>2018-05-13T07:11:16Z</time>
      </trkpt>
      <trkpt lat="44.5657" lon="-0.21419">
        <ele>14.08</ele>
        <time>2018-05-13T07:11:29Z</time>
      </trkpt>
      <trkpt lat="44.56576" lon="-0.21392">
        <ele>14.08</ele>
        <time>2018-05-13T07:11:45Z</time>
      </trkpt>
      <trkpt lat="44.56584" lon="-0.21365">
        <ele>14.56</ele>
        <time>2018-05-13T07:12:01Z</time>
      </trkpt>
      <trkpt lat="44.56588" lon="-0.21345">
        <ele>14.56</ele>
        <time>2018-05-13T07:12:15Z</time>
      </trkpt>
      <trkpt lat="44.5659" lon="-0.2133">
        <ele>14.56</ele>
        <time>2018-05-13T07:12:28Z</time>
      </trkpt>
      <trkpt lat="44.56595" lon="-0.21314">
        <ele>14.56</ele>
        <time>2018-05-13T07:12:41Z</time>
      </trkpt>
      <trkpt lat="44.56598" lon="-0.21296">
        <ele>14.56</ele>
        <time>2018-05-13T07:12:57Z</time>
      </trkpt>
      <trkpt lat="44.56603" lon="-0.21275">
        <ele>14.56</ele>
        <time>2018-05-13T07:13:12Z</time>
      </trkpt>
      <trkpt lat="44.56608" lon="-0.21253">
        <ele>15.04</ele>
        <time>2018-05-13T07:13:27Z</time>
      </trkpt>
      <trkpt lat="44.56608" lon="-0.21252">
        <ele>15.04</ele>
        <time>2018-05-13T07:13:28Z</time>
      </trkpt>
      <trkpt lat="44.56624" lon="-0.21235">
        <ele>15.04</ele>
        <time>2018-05-13T07:13:43Z</time>
      </trkpt>
      <trkpt lat="44.56638" lon="-0.21225">
        <ele>15.52</ele>
        <time>2018-05-13T07:13:58Z</time>
      </trkpt>
      <trkpt lat="44.56652" lon="-0.21215">
        <ele>15.52</ele>
        <time>2018-05-13T07:14:13Z</time>
      </trkpt>
      <trkpt lat="44.56667" lon="-0.21207">
        <ele>16</ele>
        <time>2018-05-13T07:14:28Z</time>
      </trkpt>
      <trkpt lat="44.56673" lon="-0.21204">
        <ele>16</ele>
        <time>2018-05-13T07:14:34Z</time>
      </trkpt>
      <trkpt lat="44.56683" lon="-0.21198">
        <ele>16</ele>
        <time>2018-05-13T07:14:43Z</time>
      </trkpt>
      <trkpt lat="44.56686" lon="-0.21192">
        <ele>16</ele>
        <time>2018-05-13T07:14:47Z</time>
      </trkpt>
      <trkpt lat="44.56686" lon="-0.21173">
        <ele>16.48</ele>
        <time>2018-05-13T07:14:57Z</time>
      </trkpt>
      <trkpt lat="44.56691" lon="-0.21146">
        <ele>16.48</ele>
        <time>2018-05-13T07:15:08Z</time>
      </trkpt>
      <trkpt lat="44.56694" lon="-0.21142">
        <ele>16.48</ele>
        <time>2018-05-13T07:15:29Z</time>
      </trkpt>
      <trkpt lat="44.56695" lon="-0.21143">
        <ele>16.48</ele>
        <time>2018-05-13T07:15:54Z</time>
      </trkpt>
      <trkpt lat="44.56693" lon="-0.21143">
        <ele>16.48</ele>
        <time>2018-05-13T07:16:13Z</time>
      </trkpt>
      <trkpt lat="44.56688" lon="-0.21129">
        <ele>16.48</ele>
        <time>2018-05-13T07:16:23Z</time>
      </trkpt>
      <trkpt lat="44.56682" lon="-0.2111">
        <ele>16.48</ele>
        <time>2018-05-13T07:16:35Z</time>
      </trkpt>
      <trkpt lat="44.5668" lon="-0.211">
        <ele>16.48</ele>
        <time>2018-05-13T07:16:41Z</time>
      </trkpt>
      <trkpt lat="44.56671" lon="-0.21067">
        <ele>16.48</ele>
        <time>2018-05-13T07:17:01Z</time>
      </trkpt>
      <trkpt lat="44.56665" lon="-0.21044">
        <ele>16.48</ele>
        <time>2018-05-13T07:17:17Z</time>
      </trkpt>
      <trkpt lat="44.56663" lon="-0.21032">
        <ele>16.48</ele>
        <time>2018-05-13T07:17:25Z</time>
      </trkpt>
      <trkpt lat="44.56661" lon="-0.21026">
        <ele>16.48</ele>
        <time>2018-05-13T07:17:29Z</time>
      </trkpt>
      <trkpt lat="44.56659" lon="-0.21007">
        <ele>16.48</ele>
        <time>2018-05-13T07:17:42Z</time>
      </trkpt>
      <trkpt lat="44.56655" lon="-0.20988">
        <ele>16.48</ele>
        <time>2018-05-13T07:17:53Z</time>
      </trkpt>
      <trkpt lat="44.56654" lon="-0.2096">
        <ele>16</ele>
        <time>2018-05-13T07:18:09Z</time>
      </trkpt>
      <trkpt lat="44.56658" lon="-0.20936">
        <ele>16.48</ele>
        <time>2018-05-13T07:18:24Z</time>
      </trkpt>
      <trkpt lat="44.56661" lon="-0.20911">
        <ele>16.48</ele>
        <time>2018-05-13T07:18:40Z</time>
      </trkpt>
      <trkpt lat="44.56665" lon="-0.20889">
        <ele>16.48</ele>
        <time>2018-05-13T07:18:53Z</time>
      </trkpt>
      <trkpt lat="44.56673" lon="-0.20857">
        <ele>16.48</ele>
        <time>2018-05-13T07:19:10Z</time>
      </trkpt>
      <trkpt lat="44.56674" lon="-0.20855">
        <ele>16.48</ele>
        <time>2018-05-13T07:19:11Z</time>
      </trkpt>
      <trkpt lat="44.5668" lon="-0.20831">
        <ele>16.48</ele>
        <time>2018-05-13T07:19:24Z</time>
      </trkpt>
      <trkpt lat="44.56686" lon="-0.20803">
        <ele>16.96</ele>
        <time>2018-05-13T07:19:39Z</time>
      </trkpt>
      <trkpt lat="44.56692" lon="-0.20782">
        <ele>16.96</ele>
        <time>2018-05-13T07:19:50Z</time>
      </trkpt>
      <trkpt lat="44.56692" lon="-0.20777">
        <ele>16.96</ele>
        <time>2018-05-13T07:19:53Z</time>
      </trkpt>
      <trkpt lat="44.56694" lon="-0.20769">
        <ele>16.96</ele>
        <time>2018-05-13T07:19:57Z</time>
      </trkpt>
      <trkpt lat="44.56696" lon="-0.20737">
        <ele>16.96</ele>
        <time>2018-05-13T07:20:13Z</time>
      </trkpt>
      <trkpt lat="44.56695" lon="-0.20705">
        <ele>16.96</ele>
        <time>2018-05-13T07:20:29Z</time>
      </trkpt>
      <trkpt lat="44.56694" lon="-0.20668">
        <ele>16.96</ele>
        <time>2018-05-13T07:20:47Z</time>
      </trkpt>
      <trkpt lat="44.56696" lon="-0.20637">
        <ele>16.96</ele>
        <time>2018-05-13T07:21:04Z</time>
      </trkpt>
      <trkpt lat="44.56698" lon="-0.20613">
        <ele>16.96</ele>
        <time>2018-05-13T07:21:17Z</time>
      </trkpt>
      <trkpt lat="44.567" lon="-0.20589">
        <ele>16.96</ele>
        <time>2018-05-13T07:21:33Z</time>
      </trkpt>
      <trkpt lat="44.56702" lon="-0.20561">
        <ele>16.96</ele>
        <time>2018-05-13T07:21:49Z</time>
      </trkpt>
      <trkpt lat="44.56702" lon="-0.20549">
        <ele>16.96</ele>
        <time>2018-05-13T07:21:56Z</time>
      </trkpt>
      <trkpt lat="44.56702" lon="-0.20529">
        <ele>17.44</ele>
        <time>2018-05-13T07:22:07Z</time>
      </trkpt>
      <trkpt lat="44.56702" lon="-0.20523">
        <ele>17.44</ele>
        <time>2018-05-13T07:22:11Z</time>
      </trkpt>
      <trkpt lat="44.56703" lon="-0.20484">
        <ele>17.44</ele>
        <time>2018-05-13T07:22:31Z</time>
      </trkpt>
      <trkpt lat="44.56704" lon="-0.20453">
        <ele>17.44</ele>
        <time>2018-05-13T07:22:49Z</time>
      </trkpt>
      <trkpt lat="44.56705" lon="-0.20427">
        <ele>17.44</ele>
        <time>2018-05-13T07:23:04Z</time>
      </trkpt>
      <trkpt lat="44.56706" lon="-0.20393">
        <ele>17.44</ele>
        <time>2018-05-13T07:23:22Z</time>
      </trkpt>
      <trkpt lat="44.56705" lon="-0.20362">
        <ele>17.44</ele>
        <time>2018-05-13T07:23:39Z</time>
      </trkpt>
      <trkpt lat="44.56705" lon="-0.2033">
        <ele>17.44</ele>
        <time>2018-05-13T07:23:56Z</time>
      </trkpt>
      <trkpt lat="44.56704" lon="-0.20297">
        <ele>17.44</ele>
        <time>2018-05-13T07:24:14Z</time>
      </trkpt>
      <trkpt lat="44.56703" lon="-0.20262">
        <ele>17.44</ele>
        <time>2018-05-13T07:24:33Z</time>
      </trkpt>
      <trkpt lat="44.56702" lon="-0.20228">
        <ele>17.44</ele>
        <time>2018-05-13T07:24:51Z</time>
      </trkpt>
      <trkpt lat="44.567" lon="-0.20199">
        <ele>17.44</ele>
        <time>2018-05-13T07:25:07Z</time>
      </trkpt>
      <trkpt lat="44.56699" lon="-0.20168">
        <ele>17.44</ele>
        <time>2018-05-13T07:25:23Z</time>
      </trkpt>
      <trkpt lat="44.56697" lon="-0.20141">
        <ele>16.96</ele>
        <time>2018-05-13T07:25:38Z</time>
      </trkpt>
      <trkpt lat="44.56696" lon="-0.20108">
        <ele>16.96</ele>
        <time>2018-05-13T07:25:56Z</time>
      </trkpt>
      <trkpt lat="44.56694" lon="-0.20074">
        <ele>16.96</ele>
        <time>2018-05-13T07:26:14Z</time>
      </trkpt>
      <trkpt lat="44.56692" lon="-0.20044">
        <ele>16.96</ele>
        <time>2018-05-13T07:26:30Z</time>
      </trkpt>
      <trkpt lat="44.56692" lon="-0.20038">
        <ele>16.96</ele>
        <time>2018-05-13T07:26:34Z</time>
      </trkpt>
      <trkpt lat="44.56691" lon="-0.20023">
        <ele>16.96</ele>
        <time>2018-05-13T07:26:43Z</time>
      </trkpt>
      <trkpt lat="44.56689" lon="-0.19993">
        <ele>16.96</ele>
        <time>2018-05-13T07:27:02Z</time>
      </trkpt>
      <trkpt lat="44.56687" lon="-0.19965">
        <ele>16.96</ele>
        <time>2018-05-13T07:27:18Z</time>
      </trkpt>
      <trkpt lat="44.56684" lon="-0.19948">
        <ele>16.48</ele>
        <time>2018-05-13T07:27:28Z</time>
      </trkpt>
      <trkpt lat="44.56684" lon="-0.19939">
        <ele>16.48</ele>
        <time>2018-05-13T07:27:34Z</time>
      </trkpt>
      <trkpt lat="44.56678" lon="-0.19908">
        <ele>16.48</ele>
        <time>2018-05-13T07:27:52Z</time>
      </trkpt>
      <trkpt lat="44.56677" lon="-0.19878">
        <ele>16.48</ele>
        <time>2018-05-13T07:28:08Z</time>
      </trkpt>
      <trkpt lat="44.56678" lon="-0.19844">
        <ele>16.48</ele>
        <time>2018-05-13T07:28:26Z</time>
      </trkpt>
      <trkpt lat="44.56679" lon="-0.19822">
        <ele>16.48</ele>
        <time>2018-05-13T07:28:38Z</time>
      </trkpt>
      <trkpt lat="44.56683" lon="-0.19795">
        <ele>16.48</ele>
        <time>2018-05-13T07:28:54Z</time>
      </trkpt>
      <trkpt lat="44.56684" lon="-0.19762">
        <ele>16.48</ele>
        <time>2018-05-13T07:29:12Z</time>
      </trkpt>
      <trkpt lat="44.56683" lon="-0.19747">
        <ele>16.48</ele>
        <time>2018-05-13T07:29:20Z</time>
      </trkpt>
      <trkpt lat="44.56681" lon="-0.19738">
        <ele>16.48</ele>
        <time>2018-05-13T07:29:25Z</time>
      </trkpt>
      <trkpt lat="44.56679" lon="-0.19722">
        <ele>16.48</ele>
        <time>2018-05-13T07:29:34Z</time>
      </trkpt>
      <trkpt lat="44.56681" lon="-0.19688">
        <ele>16.48</ele>
        <time>2018-05-13T07:29:51Z</time>
      </trkpt>
      <trkpt lat="44.56681" lon="-0.19661">
        <ele>16.48</ele>
        <time>2018-05-13T07:30:05Z</time>
      </trkpt>
      <trkpt lat="44.56685" lon="-0.19648">
        <ele>16.48</ele>
        <time>2018-05-13T07:30:13Z</time>
      </trkpt>
      <trkpt lat="44.5669" lon="-0.19644">
        <ele>16.48</ele>
        <time>2018-05-13T07:30:27Z</time>
      </trkpt>
      <trkpt lat="44.56692" lon="-0.19644">
        <ele>16.48</ele>
        <time>2018-05-13T07:30:54Z</time>
      </trkpt>
      <trkpt lat="44.56693" lon="-0.19644">
        <ele>17.44</ele>
        <time>2018-05-13T07:31:11Z</time>
      </trkpt>
      <trkpt lat="44.56689" lon="-0.1964">
        <ele>17.44</ele>
        <time>2018-05-13T07:31:24Z</time>
      </trkpt>
      <trkpt lat="44.56685" lon="-0.19635">
        <ele>17.44</ele>
        <time>2018-05-13T07:31:36Z</time>
      </trkpt>
      <trkpt lat="44.56685" lon="-0.19625">
        <ele>17.44</ele>
        <time>2018-05-13T07:31:47Z</time>
      </trkpt>
      <trkpt lat="44.56684" lon="-0.19608">
        <ele>17.44</ele>
        <time>2018-05-13T07:32:03Z</time>
      </trkpt>
      <trkpt lat="44.56685" lon="-0.19586">
        <ele>17.44</ele>
        <time>2018-05-13T07:32:19Z</time>
      </trkpt>
      <trkpt lat="44.56686" lon="-0.1957">
        <ele>17.44</ele>
        <time>2018-05-13T07:32:32Z</time>
      </trkpt>
      <trkpt lat="44.56686" lon="-0.19551">
        <ele>17.44</ele>
        <time>2018-05-13T07:32:47Z</time>
      </trkpt>
      <trkpt lat="44.56686" lon="-0.19528">
        <ele>17.44</ele>
        <time>2018-05-13T07:33:03Z</time>
      </trkpt>
      <trkpt lat="44.56688" lon="-0.19503">
        <ele>17.44</ele>
        <time>2018-05-13T07:33:20Z</time>
      </trkpt>
      <trkpt lat="44.56692" lon="-0.19479">
        <ele>16.96</ele>
        <time>2018-05-13T07:33:36Z</time>
      </trkpt>
      <trkpt lat="44.56699" lon="-0.19448">
        <ele>17.44</ele>
        <time>2018-05-13T07:33:54Z</time>
      </trkpt>
      <trkpt lat="44.56704" lon="-0.19422">
        <ele>17.44</ele>
        <time>2018-05-13T07:34:09Z</time>
      </trkpt>
      <trkpt lat="44.56706" lon="-0.19404">
        <ele>17.44</ele>
        <time>2018-05-13T07:34:19Z</time>
      </trkpt>
      <trkpt lat="44.56695" lon="-0.19392">
        <ele>17.44</ele>
        <time>2018-05-13T07:34:34Z</time>
      </trkpt>
      <trkpt lat="44.5668" lon="-0.19389">
        <ele>17.44</ele>
        <time>2018-05-13T07:34:50Z</time>
      </trkpt>
      <trkpt lat="44.56657" lon="-0.19387">
        <ele>17.44</ele>
        <time>2018-05-13T07:35:09Z</time>
      </trkpt>
      <trkpt lat="44.56636" lon="-0.19379">
        <ele>16</ele>
        <time>2018-05-13T07:35:28Z</time>
      </trkpt>
      <trkpt lat="44.56623" lon="-0.19354">
        <ele>16</ele>
        <time>2018-05-13T07:35:45Z</time>
      </trkpt>
      <trkpt lat="44.56623" lon="-0.19332">
        <ele>16</ele>
        <time>2018-05-13T07:35:59Z</time>
      </trkpt>
      <trkpt lat="44.56622" lon="-0.19313">
        <ele>16</ele>
        <time>2018-05-13T07:36:13Z</time>
      </trkpt>
      <trkpt lat="44.56622" lon="-0.19297">
        <ele>16</ele>
        <time>2018-05-13T07:36:26Z</time>
      </trkpt>
      <trkpt lat="44.56621" lon="-0.19288">
        <ele>16</ele>
        <time>2018-05-13T07:36:33Z</time>
      </trkpt>
      <trkpt lat="44.56622" lon="-0.19278">
        <ele>16</ele>
        <time>2018-05-13T07:36:40Z</time>
      </trkpt>
      <trkpt lat="44.56621" lon="-0.1926">
        <ele>17.44</ele>
        <time>2018-05-13T07:36:53Z</time>
      </trkpt>
      <trkpt lat="44.5662" lon="-0.19239">
        <ele>17.44</ele>
        <time>2018-05-13T07:37:09Z</time>
      </trkpt>
      <trkpt lat="44.56619" lon="-0.19221">
        <ele>17.44</ele>
        <time>2018-05-13T07:37:22Z</time>
      </trkpt>
      <trkpt lat="44.56618" lon="-0.19195">
        <ele>17.92</ele>
        <time>2018-05-13T07:37:38Z</time>
      </trkpt>
      <trkpt lat="44.56619" lon="-0.19178">
        <ele>17.92</ele>
        <time>2018-05-13T07:37:49Z</time>
      </trkpt>
      <trkpt lat="44.56621" lon="-0.19155">
        <ele>17.92</ele>
        <time>2018-05-13T07:38:03Z</time>
      </trkpt>
      <trkpt lat="44.56622" lon="-0.19133">
        <ele>18.4</ele>
        <time>2018-05-13T07:38:17Z</time>
      </trkpt>
      <trkpt lat="44.56623" lon="-0.19121">
        <ele>18.4</ele>
        <time>2018-05-13T07:38:24Z</time>
      </trkpt>
      <trkpt lat="44.56625" lon="-0.19094">
        <ele>18.88</ele>
        <time>2018-05-13T07:38:39Z</time>
      </trkpt>
      <trkpt lat="44.56625" lon="-0.19091">
        <ele>18.88</ele>
        <time>2018-05-13T07:38:41Z</time>
      </trkpt>
      <trkpt lat="44.56628" lon="-0.1907">
        <ele>18.88</ele>
        <time>2018-05-13T07:38:54Z</time>
      </trkpt>
      <trkpt lat="44.5663" lon="-0.19064">
        <ele>18.88</ele>
        <time>2018-05-13T07:38:57Z</time>
      </trkpt>
      <trkpt lat="44.56633" lon="-0.19044">
        <ele>19.36</ele>
        <time>2018-05-13T07:39:10Z</time>
      </trkpt>
      <trkpt lat="44.56636" lon="-0.19019">
        <ele>19.36</ele>
        <time>2018-05-13T07:39:25Z</time>
      </trkpt>
      <trkpt lat="44.56639" lon="-0.18995">
        <ele>19.84</ele>
        <time>2018-05-13T07:39:38Z</time>
      </trkpt>
      <trkpt lat="44.56643" lon="-0.18969">
        <ele>20.32</ele>
        <time>2018-05-13T07:39:53Z</time>
      </trkpt>
      <trkpt lat="44.56648" lon="-0.18939">
        <ele>20.32</ele>
        <time>2018-05-13T07:40:10Z</time>
      </trkpt>
      <trkpt lat="44.5665" lon="-0.18915">
        <ele>20.81</ele>
        <time>2018-05-13T07:40:24Z</time>
      </trkpt>
      <trkpt lat="44.56651" lon="-0.18898">
        <ele>20.81</ele>
        <time>2018-05-13T07:40:36Z</time>
      </trkpt>
      <trkpt lat="44.56654" lon="-0.18875">
        <ele>21.29</ele>
        <time>2018-05-13T07:40:50Z</time>
      </trkpt>
      <trkpt lat="44.56656" lon="-0.18866">
        <ele>21.29</ele>
        <time>2018-05-13T07:40:55Z</time>
      </trkpt>
      <trkpt lat="44.5667" lon="-0.18834">
        <ele>21.77</ele>
        <time>2018-05-13T07:41:10Z</time>
      </trkpt>
      <trkpt lat="44.56675" lon="-0.18811">
        <ele>21.77</ele>
        <time>2018-05-13T07:41:22Z</time>
      </trkpt>
      <trkpt lat="44.56679" lon="-0.18787">
        <ele>22.25</ele>
        <time>2018-05-13T07:41:35Z</time>
      </trkpt>
      <trkpt lat="44.5668" lon="-0.18778">
        <ele>22.25</ele>
        <time>2018-05-13T07:41:40Z</time>
      </trkpt>
      <trkpt lat="44.56681" lon="-0.18773">
        <ele>22.25</ele>
        <time>2018-05-13T07:41:43Z</time>
      </trkpt>
      <trkpt lat="44.56682" lon="-0.18769">
        <ele>22.25</ele>
        <time>2018-05-13T07:41:46Z</time>
      </trkpt>
      <trkpt lat="44.56683" lon="-0.18759">
        <ele>21.29</ele>
        <time>2018-05-13T07:41:52Z</time>
      </trkpt>
      <trkpt lat="44.56683" lon="-0.18755">
        <ele>21.29</ele>
        <time>2018-05-13T07:41:55Z</time>
      </trkpt>
      <trkpt lat="44.5669" lon="-0.18734">
        <ele>21.29</ele>
        <time>2018-05-13T07:42:06Z</time>
      </trkpt>
      <trkpt lat="44.56696" lon="-0.18711">
        <ele>21.77</ele>
        <time>2018-05-13T07:42:18Z</time>
      </trkpt>
      <trkpt lat="44.56704" lon="-0.18686">
        <ele>21.77</ele>
        <time>2018-05-13T07:42:31Z</time>
      </trkpt>
      <trkpt lat="44.56709" lon="-0.18664">
        <ele>21.77</ele>
        <time>2018-05-13T07:42:42Z</time>
      </trkpt>
      <trkpt lat="44.56715" lon="-0.18649">
        <ele>22.25</ele>
        <time>2018-05-13T07:42:54Z</time>
      </trkpt>
      <trkpt lat="44.56723" lon="-0.18629">
        <ele>22.25</ele>
        <time>2018-05-13T07:43:07Z</time>
      </trkpt>
      <trkpt lat="44.56729" lon="-0.1861">
        <ele>22.73</ele>
        <time>2018-05-13T07:43:18Z</time>
      </trkpt>
      <trkpt lat="44.56735" lon="-0.18589">
        <ele>23.69</ele>
        <time>2018-05-13T07:43:30Z</time>
      </trkpt>
      <trkpt lat="44.56738" lon="-0.1857">
        <ele>24.17</ele>
        <time>2018-05-13T07:43:43Z</time>
      </trkpt>
      <trkpt lat="44.56741" lon="-0.18548">
        <ele>24.17</ele>
        <time>2018-05-13T07:43:57Z</time>
      </trkpt>
      <trkpt lat="44.56747" lon="-0.18532">
        <ele>24.65</ele>
        <time>2018-05-13T07:44:10Z</time>
      </trkpt>
      <trkpt lat="44.56756" lon="-0.18506">
        <ele>24.65</ele>
        <time>2018-05-13T07:44:25Z</time>
      </trkpt>
      <trkpt lat="44.56764" lon="-0.1848">
        <ele>24.65</ele>
        <time>2018-05-13T07:44:38Z</time>
      </trkpt>
      <trkpt lat="44.56771" lon="-0.1845">
        <ele>25.13</ele>
        <time>2018-05-13T07:44:55Z</time>
      </trkpt>
      <trkpt lat="44.56774" lon="-0.18437">
        <ele>25.13</ele>
        <time>2018-05-13T07:45:02Z</time>
      </trkpt>
      <trkpt lat="44.56779" lon="-0.18418">
        <ele>25.13</ele>
        <time>2018-05-13T07:45:14Z</time>
      </trkpt>
      <trkpt lat="44.56781" lon="-0.18408">
        <ele>25.61</ele>
        <time>2018-05-13T07:45:19Z</time>
      </trkpt>
      <trkpt lat="44.56785" lon="-0.18387">
        <ele>25.61</ele>
        <time>2018-05-13T07:45:30Z</time>
      </trkpt>
      <trkpt lat="44.56791" lon="-0.18376">
        <ele>25.61</ele>
        <time>2018-05-13T07:45:37Z</time>
      </trkpt>
      <trkpt lat="44.56802" lon="-0.18357">
        <ele>26.09</ele>
        <time>2018-05-13T07:45:51Z</time>
      </trkpt>
      <trkpt lat="44.56816" lon="-0.18348">
        <ele>26.09</ele>
        <time>2018-05-13T07:46:06Z</time>
      </trkpt>
      <trkpt lat="44.56826" lon="-0.18341">
        <ele>26.57</ele>
        <time>2018-05-13T07:46:22Z</time>
      </trkpt>
      <trkpt lat="44.56833" lon="-0.1833">
        <ele>26.57</ele>
        <time>2018-05-13T07:46:37Z</time>
      </trkpt>
      <trkpt lat="44.56833" lon="-0.18338">
        <ele>26.57</ele>
        <time>2018-05-13T07:46:59Z</time>
      </trkpt>
      <trkpt lat="44.56831" lon="-0.18328">
        <ele>26.57</ele>
        <time>2018-05-13T07:47:16Z</time>
      </trkpt>
      <trkpt lat="44.56828" lon="-0.18322">
        <ele>26.57</ele>
        <time>2018-05-13T07:47:22Z</time>
      </trkpt>
      <trkpt lat="44.56826" lon="-0.183">
        <ele>26.57</ele>
        <time>2018-05-13T07:47:36Z</time>
      </trkpt>
      <trkpt lat="44.56819" lon="-0.18274">
        <ele>26.57</ele>
        <time>2018-05-13T07:47:52Z</time>
      </trkpt>
      <trkpt lat="44.56819" lon="-0.18271">
        <ele>26.57</ele>
        <time>2018-05-13T07:47:54Z</time>
      </trkpt>
      <trkpt lat="44.5682" lon="-0.1824">
        <ele>25.61</ele>
        <time>2018-05-13T07:48:12Z</time>
      </trkpt>
      <trkpt lat="44.56819" lon="-0.18215">
        <ele>26.09</ele>
        <time>2018-05-13T07:48:27Z</time>
      </trkpt>
      <trkpt lat="44.56822" lon="-0.18189">
        <ele>26.09</ele>
        <time>2018-05-13T07:48:44Z</time>
      </trkpt>
      <trkpt lat="44.56825" lon="-0.18166">
        <ele>26.09</ele>
        <time>2018-05-13T07:48:58Z</time>
      </trkpt>
      <trkpt lat="44.56825" lon="-0.18139">
        <ele>26.57</ele>
        <time>2018-05-13T07:49:16Z</time>
      </trkpt>
      <trkpt lat="44.56835" lon="-0.18112">
        <ele>26.57</ele>
        <time>2018-05-13T07:49:32Z</time>
      </trkpt>
      <trkpt lat="44.56838" lon="-0.18101">
        <ele>26.57</ele>
        <time>2018-05-13T07:49:45Z</time>
      </trkpt>
      <trkpt lat="44.56839" lon="-0.18086">
        <ele>26.57</ele>
        <time>2018-05-13T07:50:01Z</time>
      </trkpt>
      <trkpt lat="44.5684" lon="-0.18077">
        <ele>26.57</ele>
        <time>2018-05-13T07:50:18Z</time>
      </trkpt>
      <trkpt lat="44.56844" lon="-0.18066">
        <ele>26.09</ele>
        <time>2018-05-13T07:50:36Z</time>
      </trkpt>
      <trkpt lat="44.56848" lon="-0.18066">
        <ele>26.09</ele>
        <time>2018-05-13T07:50:52Z</time>
      </trkpt>
      <trkpt lat="44.56849" lon="-0.18068">
        <ele>25.61</ele>
        <time>2018-05-13T07:51:11Z</time>
      </trkpt>
      <trkpt lat="44.56849" lon="-0.18073">
        <ele>26.57</ele>
        <time>2018-05-13T07:51:28Z</time>
      </trkpt>
      <trkpt lat="44.56849" lon="-0.18073">
        <ele>25.13</ele>
        <time>2018-05-13T07:51:31Z</time>
      </trkpt>
      <trkpt lat="44.56849" lon="-0.18071">
        <ele>26.09</ele>
        <time>2018-05-13T07:51:48Z</time>
      </trkpt>
      <trkpt lat="44.56854" lon="-0.18071">
        <ele>26.09</ele>
        <time>2018-05-13T07:52:05Z</time>
      </trkpt>
      <trkpt lat="44.56857" lon="-0.18071">
        <ele>26.09</ele>
        <time>2018-05-13T07:52:20Z</time>
      </trkpt>
      <trkpt lat="44.56854" lon="-0.18072">
        <ele>26.09</ele>
        <time>2018-05-13T07:52:30Z</time>
      </trkpt>
      <trkpt lat="44.56854" lon="-0.18074">
        <ele>25.61</ele>
        <time>2018-05-13T07:52:32Z</time>
      </trkpt>
      <trkpt lat="44.56853" lon="-0.18073">
        <ele>25.61</ele>
        <time>2018-05-13T07:52:41Z</time>
      </trkpt>
      <trkpt lat="44.56854" lon="-0.1808">
        <ele>25.61</ele>
        <time>2018-05-13T07:52:50Z</time>
      </trkpt>
      <trkpt lat="44.56854" lon="-0.1809">
        <ele>25.61</ele>
        <time>2018-05-13T07:52:57Z</time>
      </trkpt>
      <trkpt lat="44.56854" lon="-0.18109">
        <ele>25.61</ele>
        <time>2018-05-13T07:53:10Z</time>
      </trkpt>
      <trkpt lat="44.56851" lon="-0.1813">
        <ele>25.61</ele>
        <time>2018-05-13T07:53:25Z</time>
      </trkpt>
      <trkpt lat="44.56851" lon="-0.18131">
        <ele>25.61</ele>
        <time>2018-05-13T07:53:26Z</time>
      </trkpt>
      <trkpt lat="44.56849" lon="-0.18153">
        <ele>25.13</ele>
        <time>2018-05-13T07:53:42Z</time>
      </trkpt>
      <trkpt lat="44.56847" lon="-0.18158">
        <ele>25.13</ele>
        <time>2018-05-13T07:53:52Z</time>
      </trkpt>
      <trkpt lat="44.56849" lon="-0.18161">
        <ele>25.13</ele>
        <time>2018-05-13T07:54:03Z</time>
      </trkpt>
      <trkpt lat="44.56849" lon="-0.18165">
        <ele>25.13</ele>
        <time>2018-05-13T07:54:06Z</time>
      </trkpt>
      <trkpt lat="44.56848" lon="-0.18181">
        <ele>24.65</ele>
        <time>2018-05-13T07:54:18Z</time>
      </trkpt>
      <trkpt lat="44.56844" lon="-0.18198">
        <ele>24.65</ele>
        <time>2018-05-13T07:54:30Z</time>
      </trkpt>
      <trkpt lat="44.56843" lon="-0.18214">
        <ele>24.65</ele>
        <time>2018-05-13T07:54:41Z</time>
      </trkpt>
      <trkpt lat="44.56841" lon="-0.18226">
        <ele>24.65</ele>
        <time>2018-05-13T07:54:54Z</time>
      </trkpt>
      <trkpt lat="44.5684" lon="-0.18242">
        <ele>24.65</ele>
        <time>2018-05-13T07:55:07Z</time>
      </trkpt>
      <trkpt lat="44.56839" lon="-0.18249">
        <ele>24.17</ele>
        <time>2018-05-13T07:55:12Z</time>
      </trkpt>
      <trkpt lat="44.56839" lon="-0.18268">
        <ele>24.17</ele>
        <time>2018-05-13T07:55:23Z</time>
      </trkpt>
      <trkpt lat="44.5684" lon="-0.18276">
        <ele>24.17</ele>
        <time>2018-05-13T07:55:29Z</time>
      </trkpt>
      <trkpt lat="44.56842" lon="-0.18297">
        <ele>24.17</ele>
        <time>2018-05-13T07:55:43Z</time>
      </trkpt>
      <trkpt lat="44.56845" lon="-0.18317">
        <ele>24.17</ele>
        <time>2018-05-13T07:55:55Z</time>
      </trkpt>
      <trkpt lat="44.56849" lon="-0.1834">
        <ele>24.17</ele>
        <time>2018-05-13T07:56:08Z</time>
      </trkpt>
      <trkpt lat="44.56853" lon="-0.18358">
        <ele>24.17</ele>
        <time>2018-05-13T07:56:17Z</time>
      </trkpt>
      <trkpt lat="44.56854" lon="-0.18367">
        <ele>24.17</ele>
        <time>2018-05-13T07:56:21Z</time>
      </trkpt>
      <trkpt lat="44.56853" lon="-0.18398">
        <ele>24.17</ele>
        <time>2018-05-13T07:56:36Z</time>
      </trkpt>
      <trkpt lat="44.56852" lon="-0.18424">
        <ele>24.17</ele>
        <time>2018-05-13T07:56:50Z</time>
      </trkpt>
      <trkpt lat="44.56851" lon="-0.18431">
        <ele>24.17</ele>
        <time>2018-05-13T07:56:54Z</time>
      </trkpt>
      <trkpt lat="44.56851" lon="-0.18457">
        <ele>24.17</ele>
        <time>2018-05-13T07:57:08Z</time>
      </trkpt>
      <trkpt lat="44.56849" lon="-0.18481">
        <ele>23.69</ele>
        <time>2018-05-13T07:57:21Z</time>
      </trkpt>
      <trkpt lat="44.56848" lon="-0.18505">
        <ele>23.69</ele>
        <time>2018-05-13T07:57:35Z</time>
      </trkpt>
      <trkpt lat="44.5685" lon="-0.18525">
        <ele>23.69</ele>
        <time>2018-05-13T07:57:48Z</time>
      </trkpt>
      <trkpt lat="44.56862" lon="-0.18535">
        <ele>23.69</ele>
        <time>2018-05-13T07:58:00Z</time>
      </trkpt>
      <trkpt lat="44.56875" lon="-0.18537">
        <ele>23.69</ele>
        <time>2018-05-13T07:58:12Z</time>
      </trkpt>
      <trkpt lat="44.56881" lon="-0.18537">
        <ele>23.69</ele>
        <time>2018-05-13T07:58:17Z</time>
      </trkpt>
      <trkpt lat="44.56885" lon="-0.18537">
        <ele>23.69</ele>
        <time>2018-05-13T07:58:21Z</time>
      </trkpt>
      <trkpt lat="44.56889" lon="-0.18536">
        <ele>23.69</ele>
        <time>2018-05-13T07:58:25Z</time>
      </trkpt>
      <trkpt lat="44.56904" lon="-0.18531">
        <ele>23.21</ele>
        <time>2018-05-13T07:58:37Z</time>
      </trkpt>
      <trkpt lat="44.56919" lon="-0.18525">
        <ele>23.21</ele>
        <time>2018-05-13T07:58:50Z</time>
      </trkpt>
      <trkpt lat="44.56928" lon="-0.18524">
        <ele>23.69</ele>
        <time>2018-05-13T07:58:56Z</time>
      </trkpt>
      <trkpt lat="44.56944" lon="-0.1853">
        <ele>24.17</ele>
        <time>2018-05-13T07:59:09Z</time>
      </trkpt>
      <trkpt lat="44.56954" lon="-0.18549">
        <ele>24.65</ele>
        <time>2018-05-13T07:59:22Z</time>
      </trkpt>
      <trkpt lat="44.5696" lon="-0.18567">
        <ele>25.13</ele>
        <time>2018-05-13T07:59:34Z</time>
      </trkpt>
      <trkpt lat="44.56964" lon="-0.18586">
        <ele>25.61</ele>
        <time>2018-05-13T07:59:46Z</time>
      </trkpt>
      <trkpt lat="44.56962" lon="-0.18596">
        <ele>25.61</ele>
        <time>2018-05-13T07:59:52Z</time>
      </trkpt>
      <trkpt lat="44.56959" lon="-0.18623">
        <ele>24.17</ele>
        <time>2018-05-13T08:00:07Z</time>
      </trkpt>
      <trkpt lat="44.56959" lon="-0.18648">
        <ele>23.69</ele>
        <time>2018-05-13T08:00:20Z</time>
      </trkpt>
      <trkpt lat="44.56959" lon="-0.18671">
        <ele>23.21</ele>
        <time>2018-05-13T08:00:33Z</time>
      </trkpt>
      <trkpt lat="44.5696" lon="-0.18675">
        <ele>23.21</ele>
        <time>2018-05-13T08:00:35Z</time>
      </trkpt>
      <trkpt lat="44.56961" lon="-0.18688">
        <ele>23.21</ele>
        <time>2018-05-13T08:00:42Z</time>
      </trkpt>
      <trkpt lat="44.56964" lon="-0.18711">
        <ele>23.21</ele>
        <time>2018-05-13T08:00:56Z</time>
      </trkpt>
      <trkpt lat="44.56964" lon="-0.18713">
        <ele>23.21</ele>
        <time>2018-05-13T08:00:57Z</time>
      </trkpt>
      <trkpt lat="44.56969" lon="-0.18741">
        <ele>22.73</ele>
        <time>2018-05-13T08:01:14Z</time>
      </trkpt>
      <trkpt lat="44.5697" lon="-0.18751">
        <ele>22.73</ele>
        <time>2018-05-13T08:01:20Z</time>
      </trkpt>
      <trkpt lat="44.56971" lon="-0.18759">
        <ele>22.73</ele>
        <time>2018-05-13T08:01:24Z</time>
      </trkpt>
      <trkpt lat="44.56974" lon="-0.18783">
        <ele>22.73</ele>
        <time>2018-05-13T08:01:38Z</time>
      </trkpt>
      <trkpt lat="44.56975" lon="-0.18792">
        <ele>22.73</ele>
        <time>2018-05-13T08:01:44Z</time>
      </trkpt>
      <trkpt lat="44.5698" lon="-0.18816">
        <ele>22.73</ele>
        <time>2018-05-13T08:01:59Z</time>
      </trkpt>
      <trkpt lat="44.56987" lon="-0.18841">
        <ele>22.73</ele>
        <time>2018-05-13T08:02:14Z</time>
      </trkpt>
      <trkpt lat="44.56988" lon="-0.18844">
        <ele>22.73</ele>
        <time>2018-05-13T08:02:16Z</time>
      </trkpt>
      <trkpt lat="44.5699" lon="-0.18851">
        <ele>22.73</ele>
        <time>2018-05-13T08:02:20Z</time>
      </trkpt>
      <trkpt lat="44.56999" lon="-0.18867">
        <ele>22.25</ele>
        <time>2018-05-13T08:02:32Z</time>
      </trkpt>
      <trkpt lat="44.57012" lon="-0.18881">
        <ele>22.25</ele>
        <time>2018-05-13T08:02:45Z</time>
      </trkpt>
      <trkpt lat="44.57015" lon="-0.18883">
        <ele>23.69</ele>
        <time>2018-05-13T08:02:48Z</time>
      </trkpt>
      <trkpt lat="44.5703" lon="-0.18902">
        <ele>24.65</ele>
        <time>2018-05-13T08:03:04Z</time>
      </trkpt>
      <trkpt lat="44.57033" lon="-0.18911">
        <ele>24.65</ele>
        <time>2018-05-13T08:03:09Z</time>
      </trkpt>
      <trkpt lat="44.57038" lon="-0.18932">
        <ele>24.65</ele>
        <time>2018-05-13T08:03:21Z</time>
      </trkpt>
      <trkpt lat="44.57043" lon="-0.18947">
        <ele>24.65</ele>
        <time>2018-05-13T08:03:30Z</time>
      </trkpt>
      <trkpt lat="44.57044" lon="-0.18952">
        <ele>24.65</ele>
        <time>2018-05-13T08:03:34Z</time>
      </trkpt>
      <trkpt lat="44.57047" lon="-0.18975">
        <ele>24.65</ele>
        <time>2018-05-13T08:03:46Z</time>
      </trkpt>
      <trkpt lat="44.57051" lon="-0.18984">
        <ele>24.65</ele>
        <time>2018-05-13T08:03:52Z</time>
      </trkpt>
      <trkpt lat="44.57058" lon="-0.19006">
        <ele>24.65</ele>
        <time>2018-05-13T08:04:05Z</time>
      </trkpt>
      <trkpt lat="44.57059" lon="-0.19008">
        <ele>24.65</ele>
        <time>2018-05-13T08:04:07Z</time>
      </trkpt>
      <trkpt lat="44.57063" lon="-0.19013">
        <ele>24.65</ele>
        <time>2018-05-13T08:04:12Z</time>
      </trkpt>
      <trkpt lat="44.57077" lon="-0.1901">
        <ele>25.13</ele>
        <time>2018-05-13T08:04:24Z</time>
      </trkpt>
      <trkpt lat="44.57078" lon="-0.1901">
        <ele>25.13</ele>
        <time>2018-05-13T08:04:25Z</time>
      </trkpt>
      <trkpt lat="44.57093" lon="-0.19004">
        <ele>25.13</ele>
        <time>2018-05-13T08:04:37Z</time>
      </trkpt>
      <trkpt lat="44.57105" lon="-0.19023">
        <ele>25.61</ele>
        <time>2018-05-13T08:04:50Z</time>
      </trkpt>
      <trkpt lat="44.57108" lon="-0.19031">
        <ele>25.61</ele>
        <time>2018-05-13T08:04:55Z</time>
      </trkpt>
      <trkpt lat="44.57114" lon="-0.19054">
        <ele>26.09</ele>
        <time>2018-05-13T08:05:08Z</time>
      </trkpt>
      <trkpt lat="44.57116" lon="-0.19068">
        <ele>26.09</ele>
        <time>2018-05-13T08:05:17Z</time>
      </trkpt>
      <trkpt lat="44.57119" lon="-0.19089">
        <ele>26.09</ele>
        <time>2018-05-13T08:05:30Z</time>
      </trkpt>
      <trkpt lat="44.57121" lon="-0.19103">
        <ele>25.61</ele>
        <time>2018-05-13T08:05:38Z</time>
      </trkpt>
      <trkpt lat="44.57123" lon="-0.19114">
        <ele>25.61</ele>
        <time>2018-05-13T08:05:44Z</time>
      </trkpt>
      <trkpt lat="44.57129" lon="-0.19119">
        <ele>25.61</ele>
        <time>2018-05-13T08:05:52Z</time>
      </trkpt>
      <trkpt lat="44.5714" lon="-0.19118">
        <ele>26.57</ele>
        <time>2018-05-13T08:06:03Z</time>
      </trkpt>
      <trkpt lat="44.57155" lon="-0.19117">
        <ele>26.57</ele>
        <time>2018-05-13T08:06:18Z</time>
      </trkpt>
      <trkpt lat="44.57158" lon="-0.19118">
        <ele>26.57</ele>
        <time>2018-05-13T08:06:21Z</time>
      </trkpt>
      <trkpt lat="44.57167" lon="-0.19125">
        <ele>26.57</ele>
        <time>2018-05-13T08:06:30Z</time>
      </trkpt>
      <trkpt lat="44.57169" lon="-0.19131">
        <ele>26.57</ele>
        <time>2018-05-13T08:06:33Z</time>
      </trkpt>
      <trkpt lat="44.57172" lon="-0.19145">
        <ele>26.57</ele>
        <time>2018-05-13T08:06:41Z</time>
      </trkpt>
      <trkpt lat="44.57171" lon="-0.19151">
        <ele>26.57</ele>
        <time>2018-05-13T08:06:45Z</time>
      </trkpt>
      <trkpt lat="44.57169" lon="-0.19161">
        <ele>25.13</ele>
        <time>2018-05-13T08:06:52Z</time>
      </trkpt>
      <trkpt lat="44.57171" lon="-0.19167">
        <ele>25.13</ele>
        <time>2018-05-13T08:06:55Z</time>
      </trkpt>
      <trkpt lat="44.57169" lon="-0.19179">
        <ele>24.65</ele>
        <time>2018-05-13T08:07:03Z</time>
      </trkpt>
      <trkpt lat="44.57167" lon="-0.19186">
        <ele>24.17</ele>
        <time>2018-05-13T08:07:14Z</time>
      </trkpt>
      <trkpt lat="44.57163" lon="-0.19187">
        <ele>24.17</ele>
        <time>2018-05-13T08:07:38Z</time>
      </trkpt>
      <trkpt lat="44.57165" lon="-0.19187">
        <ele>23.69</ele>
        <time>2018-05-13T08:08:07Z</time>
      </trkpt>
      <trkpt lat="44.57166" lon="-0.19188">
        <ele>23.69</ele>
        <time>2018-05-13T08:08:33Z</time>
      </trkpt>
      <trkpt lat="44.57166" lon="-0.19187">
        <ele>23.69</ele>
        <time>2018-05-13T08:08:57Z</time>
      </trkpt>
      <trkpt lat="44.57167" lon="-0.19184">
        <ele>23.69</ele>
        <time>2018-05-13T08:09:15Z</time>
      </trkpt>
      <trkpt lat="44.57167" lon="-0.19183">
        <ele>23.21</ele>
        <time>2018-05-13T08:09:42Z</time>
      </trkpt>
      <trkpt lat="44.57165" lon="-0.19181">
        <ele>23.21</ele>
        <time>2018-05-13T08:10:02Z</time>
      </trkpt>
      <trkpt lat="44.57168" lon="-0.19188">
        <ele>23.21</ele>
        <time>2018-05-13T08:10:15Z</time>
      </trkpt>
      <trkpt lat="44.57167" lon="-0.19194">
        <ele>23.21</ele>
        <time>2018-05-13T08:10:28Z</time>
      </trkpt>
      <trkpt lat="44.5717" lon="-0.19197">
        <ele>23.21</ele>
        <time>2018-05-13T08:10:38Z</time>
      </trkpt>
      <trkpt lat="44.57166" lon="-0.19195">
        <ele>23.21</ele>
        <time>2018-05-13T08:10:51Z</time>
      </trkpt>
      <trkpt lat="44.57166" lon="-0.19195">
        <ele>23.21</ele>
        <time>2018-05-13T08:10:52Z</time>
      </trkpt>
      <trkpt lat="44.57157" lon="-0.19196">
        <ele>22.73</ele>
        <time>2018-05-13T08:10:59Z</time>
      </trkpt>
      <trkpt lat="44.57153" lon="-0.19197">
        <ele>22.73</ele>
        <time>2018-05-13T08:11:03Z</time>
      </trkpt>
      <trkpt lat="44.57146" lon="-0.19196">
        <ele>22.25</ele>
        <time>2018-05-13T08:11:10Z</time>
      </trkpt>
      <trkpt lat="44.57139" lon="-0.19187">
        <ele>22.25</ele>
        <time>2018-05-13T08:11:19Z</time>
      </trkpt>
      <trkpt lat="44.57138" lon="-0.19187">
        <ele>21.77</ele>
        <time>2018-05-13T08:11:21Z</time>
      </trkpt>
      <trkpt lat="44.57127" lon="-0.19182">
        <ele>21.77</ele>
        <time>2018-05-13T08:11:31Z</time>
      </trkpt>
      <trkpt lat="44.57125" lon="-0.19181">
        <ele>21.77</ele>
        <time>2018-05-13T08:11:33Z</time>
      </trkpt>
      <trkpt lat="44.57119" lon="-0.19178">
        <ele>21.77</ele>
        <time>2018-05-13T08:11:38Z</time>
      </trkpt>
      <trkpt lat="44.57114" lon="-0.19174">
        <ele>21.29</ele>
        <time>2018-05-13T08:11:43Z</time>
      </trkpt>
      <trkpt lat="44.57111" lon="-0.19168">
        <ele>21.29</ele>
        <time>2018-05-13T08:11:47Z</time>
      </trkpt>
      <trkpt lat="44.5711" lon="-0.19148">
        <ele>20.81</ele>
        <time>2018-05-13T08:11:59Z</time>
      </trkpt>
      <trkpt lat="44.5711" lon="-0.19145">
        <ele>20.81</ele>
        <time>2018-05-13T08:12:02Z</time>
      </trkpt>
      <trkpt lat="44.57109" lon="-0.19142">
        <ele>16.48</ele>
        <time>2018-05-13T08:12:10Z</time>
      </trkpt>
      <trkpt lat="44.57109" lon="-0.19142">
        <ele>22.25</ele>
        <time>2018-05-13T08:12:11Z</time>
      </trkpt>
      <trkpt lat="44.57114" lon="-0.19139">
        <ele>20.32</ele>
        <time>2018-05-13T08:12:44Z</time>
      </trkpt>
      <trkpt lat="44.57113" lon="-0.19138">
        <ele>19.84</ele>
        <time>2018-05-13T08:13:19Z</time>
      </trkpt>
      <trkpt lat="44.57112" lon="-0.19139">
        <ele>21.77</ele>
        <time>2018-05-13T08:13:37Z</time>
      </trkpt>
      <trkpt lat="44.57114" lon="-0.1914">
        <ele>21.77</ele>
        <time>2018-05-13T08:13:46Z</time>
      </trkpt>
      <trkpt lat="44.57115" lon="-0.19146">
        <ele>21.77</ele>
        <time>2018-05-13T08:13:58Z</time>
      </trkpt>
      <trkpt lat="44.57116" lon="-0.19157">
        <ele>21.77</ele>
        <time>2018-05-13T08:14:11Z</time>
      </trkpt>
      <trkpt lat="44.57121" lon="-0.19164">
        <ele>21.77</ele>
        <time>2018-05-13T08:14:19Z</time>
      </trkpt>
      <trkpt lat="44.57135" lon="-0.19175">
        <ele>22.25</ele>
        <time>2018-05-13T08:14:36Z</time>
      </trkpt>
      <trkpt lat="44.5715" lon="-0.1919">
        <ele>22.73</ele>
        <time>2018-05-13T08:14:52Z</time>
      </trkpt>
      <trkpt lat="44.57161" lon="-0.19191">
        <ele>22.73</ele>
        <time>2018-05-13T08:15:07Z</time>
      </trkpt>
      <trkpt lat="44.57164" lon="-0.19193">
        <ele>22.73</ele>
        <time>2018-05-13T08:15:32Z</time>
      </trkpt>
      <trkpt lat="44.57166" lon="-0.19199">
        <ele>23.21</ele>
        <time>2018-05-13T08:15:50Z</time>
      </trkpt>
      <trkpt lat="44.57166" lon="-0.19199">
        <ele>23.21</ele>
        <time>2018-05-13T08:16:12Z</time>
      </trkpt>
      <trkpt lat="44.57167" lon="-0.19199">
        <ele>23.21</ele>
        <time>2018-05-13T08:16:23Z</time>
      </trkpt>
      <trkpt lat="44.57171" lon="-0.19201">
        <ele>23.21</ele>
        <time>2018-05-13T08:16:30Z</time>
      </trkpt>
      <trkpt lat="44.57177" lon="-0.19196">
        <ele>23.69</ele>
        <time>2018-05-13T08:16:38Z</time>
      </trkpt>
      <trkpt lat="44.57179" lon="-0.19194">
        <ele>23.69</ele>
        <time>2018-05-13T08:16:41Z</time>
      </trkpt>
      <trkpt lat="44.57194" lon="-0.19186">
        <ele>24.65</ele>
        <time>2018-05-13T08:16:56Z</time>
      </trkpt>
      <trkpt lat="44.57214" lon="-0.19177">
        <ele>25.61</ele>
        <time>2018-05-13T08:17:14Z</time>
      </trkpt>
      <trkpt lat="44.57232" lon="-0.19165">
        <ele>26.09</ele>
        <time>2018-05-13T08:17:29Z</time>
      </trkpt>
      <trkpt lat="44.57245" lon="-0.1916">
        <ele>26.57</ele>
        <time>2018-05-13T08:17:40Z</time>
      </trkpt>
      <trkpt lat="44.57266" lon="-0.19153">
        <ele>28.02</ele>
        <time>2018-05-13T08:17:56Z</time>
      </trkpt>
      <trkpt lat="44.57287" lon="-0.19146">
        <ele>29.46</ele>
        <time>2018-05-13T08:18:13Z</time>
      </trkpt>
      <trkpt lat="44.57299" lon="-0.1914">
        <ele>30.42</ele>
        <time>2018-05-13T08:18:23Z</time>
      </trkpt>
      <trkpt lat="44.57312" lon="-0.19135">
        <ele>31.38</ele>
        <time>2018-05-13T08:18:37Z</time>
      </trkpt>
      <trkpt lat="44.5732" lon="-0.19136">
        <ele>31.38</ele>
        <time>2018-05-13T08:18:44Z</time>
      </trkpt>
      <trkpt lat="44.57342" lon="-0.19132">
        <ele>33.78</ele>
        <time>2018-05-13T08:19:03Z</time>
      </trkpt>
      <trkpt lat="44.57343" lon="-0.19131">
        <ele>33.78</ele>
        <time>2018-05-13T08:19:04Z</time>
      </trkpt>
      <trkpt lat="44.57345" lon="-0.19129">
        <ele>33.3</ele>
        <time>2018-05-13T08:19:06Z</time>
      </trkpt>
      <trkpt lat="44.57359" lon="-0.1913">
        <ele>34.74</ele>
        <time>2018-05-13T08:19:19Z</time>
      </trkpt>
      <trkpt lat="44.57377" lon="-0.19128">
        <ele>36.19</ele>
        <time>2018-05-13T08:19:34Z</time>
      </trkpt>
      <trkpt lat="44.57386" lon="-0.19127">
        <ele>36.19</ele>
        <time>2018-05-13T08:19:47Z</time>
      </trkpt>
      <trkpt lat="44.57397" lon="-0.19128">
        <ele>36.19</ele>
        <time>2018-05-13T08:20:04Z</time>
      </trkpt>
      <trkpt lat="44.57412" lon="-0.19135">
        <ele>36.19</ele>
        <time>2018-05-13T08:20:19Z</time>
      </trkpt>
      <trkpt lat="44.57432" lon="-0.19138">
        <ele>34.74</ele>
        <time>2018-05-13T08:20:36Z</time>
      </trkpt>
      <trkpt lat="44.57444" lon="-0.19142">
        <ele>34.26</ele>
        <time>2018-05-13T08:20:46Z</time>
      </trkpt>
      <trkpt lat="44.57454" lon="-0.19144">
        <ele>33.78</ele>
        <time>2018-05-13T08:20:55Z</time>
      </trkpt>
      <trkpt lat="44.5747" lon="-0.19147">
        <ele>33.3</ele>
        <time>2018-05-13T08:21:09Z</time>
      </trkpt>
      <trkpt lat="44.57485" lon="-0.19151">
        <ele>32.82</ele>
        <time>2018-05-13T08:21:21Z</time>
      </trkpt>
      <trkpt lat="44.57494" lon="-0.19159">
        <ele>32.82</ele>
        <time>2018-05-13T08:21:33Z</time>
      </trkpt>
      <trkpt lat="44.57494" lon="-0.19157">
        <ele>32.82</ele>
        <time>2018-05-13T08:21:44Z</time>
      </trkpt>
      <trkpt lat="44.57495" lon="-0.19175">
        <ele>32.82</ele>
        <time>2018-05-13T08:22:01Z</time>
      </trkpt>
      <trkpt lat="44.57495" lon="-0.19177">
        <ele>32.82</ele>
        <time>2018-05-13T08:22:02Z</time>
      </trkpt>
      <trkpt lat="44.57492" lon="-0.19205">
        <ele>33.78</ele>
        <time>2018-05-13T08:22:21Z</time>
      </trkpt>
      <trkpt lat="44.57493" lon="-0.19232">
        <ele>33.78</ele>
        <time>2018-05-13T08:22:37Z</time>
      </trkpt>
      <trkpt lat="44.57497" lon="-0.19257">
        <ele>34.74</ele>
        <time>2018-05-13T08:22:52Z</time>
      </trkpt>
      <trkpt lat="44.57504" lon="-0.19282">
        <ele>34.74</ele>
        <time>2018-05-13T08:23:09Z</time>
      </trkpt>
      <trkpt lat="44.57514" lon="-0.19303">
        <ele>34.74</ele>
        <time>2018-05-13T08:23:24Z</time>
      </trkpt>
      <trkpt lat="44.57532" lon="-0.19307">
        <ele>34.74</ele>
        <time>2018-05-13T08:23:41Z</time>
      </trkpt>
      <trkpt lat="44.57536" lon="-0.19308">
        <ele>35.23</ele>
        <time>2018-05-13T08:23:44Z</time>
      </trkpt>
      <trkpt lat="44.57546" lon="-0.19308">
        <ele>35.23</ele>
        <time>2018-05-13T08:23:52Z</time>
      </trkpt>
      <trkpt lat="44.57551" lon="-0.19308">
        <ele>35.23</ele>
        <time>2018-05-13T08:23:56Z</time>
      </trkpt>
      <trkpt lat="44.57564" lon="-0.19309">
        <ele>35.71</ele>
        <time>2018-05-13T08:24:08Z</time>
      </trkpt>
      <trkpt lat="44.57583" lon="-0.19317">
        <ele>35.71</ele>
        <time>2018-05-13T08:24:25Z</time>
      </trkpt>
      <trkpt lat="44.57598" lon="-0.19331">
        <ele>36.67</ele>
        <time>2018-05-13T08:24:40Z</time>
      </trkpt>
      <trkpt lat="44.57621" lon="-0.19341">
        <ele>37.15</ele>
        <time>2018-05-13T08:24:58Z</time>
      </trkpt>
      <trkpt lat="44.57651" lon="-0.19345">
        <ele>38.11</ele>
        <time>2018-05-13T08:25:20Z</time>
      </trkpt>
      <trkpt lat="44.57678" lon="-0.19342">
        <ele>39.07</ele>
        <time>2018-05-13T08:25:40Z</time>
      </trkpt>
      <trkpt lat="44.57702" lon="-0.1934">
        <ele>39.07</ele>
        <time>2018-05-13T08:25:59Z</time>
      </trkpt>
      <trkpt lat="44.57729" lon="-0.19337">
        <ele>39.55</ele>
        <time>2018-05-13T08:26:20Z</time>
      </trkpt>
      <trkpt lat="44.57754" lon="-0.19335">
        <ele>39.55</ele>
        <time>2018-05-13T08:26:40Z</time>
      </trkpt>
      <trkpt lat="44.57776" lon="-0.19325">
        <ele>40.03</ele>
        <time>2018-05-13T08:26:58Z</time>
      </trkpt>
      <trkpt lat="44.57795" lon="-0.19318">
        <ele>40.51</ele>
        <time>2018-05-13T08:27:14Z</time>
      </trkpt>
      <trkpt lat="44.57815" lon="-0.19312">
        <ele>40.99</ele>
        <time>2018-05-13T08:27:30Z</time>
      </trkpt>
      <trkpt lat="44.57837" lon="-0.19311">
        <ele>41.95</ele>
        <time>2018-05-13T08:27:48Z</time>
      </trkpt>
      <trkpt lat="44.57856" lon="-0.19309">
        <ele>41.95</ele>
        <time>2018-05-13T08:28:04Z</time>
      </trkpt>
      <trkpt lat="44.57877" lon="-0.19306">
        <ele>42.44</ele>
        <time>2018-05-13T08:28:22Z</time>
      </trkpt>
      <trkpt lat="44.579" lon="-0.19299">
        <ele>43.4</ele>
        <time>2018-05-13T08:28:40Z</time>
      </trkpt>
      <trkpt lat="44.57908" lon="-0.19298">
        <ele>43.88</ele>
        <time>2018-05-13T08:28:56Z</time>
      </trkpt>
      <trkpt lat="44.5791" lon="-0.19305">
        <ele>43.88</ele>
        <time>2018-05-13T08:29:17Z</time>
      </trkpt>
      <trkpt lat="44.57911" lon="-0.19324">
        <ele>45.32</ele>
        <time>2018-05-13T08:29:30Z</time>
      </trkpt>
      <trkpt lat="44.57922" lon="-0.19336">
        <ele>46.76</ele>
        <time>2018-05-13T08:29:44Z</time>
      </trkpt>
      <trkpt lat="44.57946" lon="-0.19339">
        <ele>47.72</ele>
        <time>2018-05-13T08:30:04Z</time>
      </trkpt>
      <trkpt lat="44.57966" lon="-0.19341">
        <ele>49.16</ele>
        <time>2018-05-13T08:30:20Z</time>
      </trkpt>
      <trkpt lat="44.57988" lon="-0.19346">
        <ele>51.57</ele>
        <time>2018-05-13T08:30:39Z</time>
      </trkpt>
      <trkpt lat="44.57996" lon="-0.19368">
        <ele>53.01</ele>
        <time>2018-05-13T08:30:54Z</time>
      </trkpt>
      <trkpt lat="44.57995" lon="-0.19397">
        <ele>54.45</ele>
        <time>2018-05-13T08:31:11Z</time>
      </trkpt>
      <trkpt lat="44.57995" lon="-0.19424">
        <ele>55.41</ele>
        <time>2018-05-13T08:31:28Z</time>
      </trkpt>
      <trkpt lat="44.58004" lon="-0.19433">
        <ele>56.37</ele>
        <time>2018-05-13T08:31:41Z</time>
      </trkpt>
      <trkpt lat="44.58024" lon="-0.19435">
        <ele>59.26</ele>
        <time>2018-05-13T08:31:59Z</time>
      </trkpt>
      <trkpt lat="44.58025" lon="-0.19435">
        <ele>59.74</ele>
        <time>2018-05-13T08:32:00Z</time>
      </trkpt>
      <trkpt lat="44.58044" lon="-0.1945">
        <ele>60.22</ele>
        <time>2018-05-13T08:32:20Z</time>
      </trkpt>
      <trkpt lat="44.58051" lon="-0.19461">
        <ele>60.7</ele>
        <time>2018-05-13T08:32:29Z</time>
      </trkpt>
      <trkpt lat="44.58052" lon="-0.19469">
        <ele>60.7</ele>
        <time>2018-05-13T08:32:34Z</time>
      </trkpt>
      <trkpt lat="44.58053" lon="-0.195">
        <ele>60.7</ele>
        <time>2018-05-13T08:32:53Z</time>
      </trkpt>
      <trkpt lat="44.58054" lon="-0.19519">
        <ele>60.7</ele>
        <time>2018-05-13T08:33:06Z</time>
      </trkpt>
      <trkpt lat="44.58073" lon="-0.19525">
        <ele>60.22</ele>
        <time>2018-05-13T08:33:24Z</time>
      </trkpt>
      <trkpt lat="44.58094" lon="-0.1953">
        <ele>61.18</ele>
        <time>2018-05-13T08:33:42Z</time>
      </trkpt>
      <trkpt lat="44.58118" lon="-0.19534">
        <ele>62.14</ele>
        <time>2018-05-13T08:34:02Z</time>
      </trkpt>
      <trkpt lat="44.58131" lon="-0.1955">
        <ele>62.14</ele>
        <time>2018-05-13T08:34:18Z</time>
      </trkpt>
      <trkpt lat="44.58133" lon="-0.19578">
        <ele>62.62</ele>
        <time>2018-05-13T08:34:34Z</time>
      </trkpt>
      <trkpt lat="44.58134" lon="-0.19607">
        <ele>63.1</ele>
        <time>2018-05-13T08:34:50Z</time>
      </trkpt>
      <trkpt lat="44.58135" lon="-0.19634">
        <ele>63.58</ele>
        <time>2018-05-13T08:35:06Z</time>
      </trkpt>
      <trkpt lat="44.58137" lon="-0.19662">
        <ele>64.55</ele>
        <time>2018-05-13T08:35:22Z</time>
      </trkpt>
      <trkpt lat="44.58138" lon="-0.19694">
        <ele>65.51</ele>
        <time>2018-05-13T08:35:40Z</time>
      </trkpt>
      <trkpt lat="44.58137" lon="-0.19728">
        <ele>65.99</ele>
        <time>2018-05-13T08:35:59Z</time>
      </trkpt>
      <trkpt lat="44.58143" lon="-0.19757">
        <ele>66.47</ele>
        <time>2018-05-13T08:36:17Z</time>
      </trkpt>
      <trkpt lat="44.58154" lon="-0.19782">
        <ele>66.95</ele>
        <time>2018-05-13T08:36:34Z</time>
      </trkpt>
      <trkpt lat="44.58156" lon="-0.19804">
        <ele>66.95</ele>
        <time>2018-05-13T08:36:49Z</time>
      </trkpt>
      <trkpt lat="44.58156" lon="-0.19805">
        <ele>66.95</ele>
        <time>2018-05-13T08:37:01Z</time>
      </trkpt>
      <trkpt lat="44.58153" lon="-0.19801">
        <ele>66.95</ele>
        <time>2018-05-13T08:37:15Z</time>
      </trkpt>
      <trkpt lat="44.58153" lon="-0.19813">
        <ele>66.47</ele>
        <time>2018-05-13T08:37:28Z</time>
      </trkpt>
      <trkpt lat="44.58154" lon="-0.19827">
        <ele>66.47</ele>
        <time>2018-05-13T08:37:41Z</time>
      </trkpt>
      <trkpt lat="44.58154" lon="-0.19834">
        <ele>66.47</ele>
        <time>2018-05-13T08:37:47Z</time>
      </trkpt>
      <trkpt lat="44.58154" lon="-0.19838">
        <ele>66.47</ele>
        <time>2018-05-13T08:37:50Z</time>
      </trkpt>
      <trkpt lat="44.58151" lon="-0.19846">
        <ele>66.47</ele>
        <time>2018-05-13T08:38:02Z</time>
      </trkpt>
      <trkpt lat="44.5815" lon="-0.19847">
        <ele>65.51</ele>
        <time>2018-05-13T08:38:15Z</time>
      </trkpt>
      <trkpt lat="44.58153" lon="-0.19847">
        <ele>64.55</ele>
        <time>2018-05-13T08:38:31Z</time>
      </trkpt>
      <trkpt lat="44.58154" lon="-0.19847">
        <ele>65.51</ele>
        <time>2018-05-13T08:38:40Z</time>
      </trkpt>
      <trkpt lat="44.58154" lon="-0.19846">
        <ele>65.51</ele>
        <time>2018-05-13T08:38:55Z</time>
      </trkpt>
      <trkpt lat="44.58154" lon="-0.19848">
        <ele>64.07</ele>
        <time>2018-05-13T08:39:02Z</time>
      </trkpt>
      <trkpt lat="44.5815" lon="-0.19853">
        <ele>63.58</ele>
        <time>2018-05-13T08:39:44Z</time>
      </trkpt>
      <trkpt lat="44.58149" lon="-0.19853">
        <ele>63.58</ele>
        <time>2018-05-13T08:40:25Z</time>
      </trkpt>
      <trkpt lat="44.5815" lon="-0.19852">
        <ele>63.1</ele>
        <time>2018-05-13T08:41:06Z</time>
      </trkpt>
      <trkpt lat="44.5815" lon="-0.19853">
        <ele>63.1</ele>
        <time>2018-05-13T08:41:54Z</time>
      </trkpt>
      <trkpt lat="44.58151" lon="-0.19851">
        <ele>62.62</ele>
        <time>2018-05-13T08:42:37Z</time>
      </trkpt>
      <trkpt lat="44.5815" lon="-0.19849">
        <ele>62.62</ele>
        <time>2018-05-13T08:43:11Z</time>
      </trkpt>
      <trkpt lat="44.58149" lon="-0.19851">
        <ele>62.14</ele>
        <time>2018-05-13T08:43:58Z</time>
      </trkpt>
      <trkpt lat="44.58151" lon="-0.19851">
        <ele>62.14</ele>
        <time>2018-05-13T08:44:39Z</time>
      </trkpt>
      <trkpt lat="44.58151" lon="-0.1985">
        <ele>63.1</ele>
        <time>2018-05-13T08:45:22Z</time>
      </trkpt>
      <trkpt lat="44.58152" lon="-0.1985">
        <ele>64.07</ele>
        <time>2018-05-13T08:45:36Z</time>
      </trkpt>
      <trkpt lat="44.58152" lon="-0.19848">
        <ele>63.58</ele>
        <time>2018-05-13T08:45:50Z</time>
      </trkpt>
      <trkpt lat="44.58151" lon="-0.19849">
        <ele>64.07</ele>
        <time>2018-05-13T08:46:11Z</time>
      </trkpt>
      <trkpt lat="44.58151" lon="-0.19849">
        <ele>64.07</ele>
        <time>2018-05-13T08:46:41Z</time>
      </trkpt>
      <trkpt lat="44.58153" lon="-0.19848">
        <ele>64.07</ele>
        <time>2018-05-13T08:46:58Z</time>
      </trkpt>
      <trkpt lat="44.58153" lon="-0.19849">
        <ele>64.07</ele>
        <time>2018-05-13T08:47:14Z</time>
      </trkpt>
      <trkpt lat="44.58152" lon="-0.19851">
        <ele>63.58</ele>
        <time>2018-05-13T08:47:32Z</time>
      </trkpt>
      <trkpt lat="44.58154" lon="-0.19847">
        <ele>63.58</ele>
        <time>2018-05-13T08:47:45Z</time>
      </trkpt>
      <trkpt lat="44.58156" lon="-0.19844">
        <ele>63.58</ele>
        <time>2018-05-13T08:48:09Z</time>
      </trkpt>
      <trkpt lat="44.58156" lon="-0.19844">
        <ele>63.58</ele>
        <time>2018-05-13T08:48:31Z</time>
      </trkpt>
      <trkpt lat="44.58156" lon="-0.19845">
        <ele>63.58</ele>
        <time>2018-05-13T08:48:49Z</time>
      </trkpt>
      <trkpt lat="44.58154" lon="-0.19847">
        <ele>63.58</ele>
        <time>2018-05-13T08:49:06Z</time>
      </trkpt>
      <trkpt lat="44.58154" lon="-0.19848">
        <ele>63.58</ele>
        <time>2018-05-13T08:49:23Z</time>
      </trkpt>
      <trkpt lat="44.58154" lon="-0.19849">
        <ele>63.58</ele>
        <time>2018-05-13T08:49:36Z</time>
      </trkpt>
      <trkpt lat="44.58156" lon="-0.19851">
        <ele>63.58</ele>
        <time>2018-05-13T08:50:05Z</time>
      </trkpt>
      <trkpt lat="44.58154" lon="-0.1985">
        <ele>63.58</ele>
        <time>2018-05-13T08:50:22Z</time>
      </trkpt>
      <trkpt lat="44.58154" lon="-0.1985">
        <ele>63.58</ele>
        <time>2018-05-13T08:50:48Z</time>
      </trkpt>
      <trkpt lat="44.58154" lon="-0.19844">
        <ele>63.58</ele>
        <time>2018-05-13T08:51:02Z</time>
      </trkpt>
      <trkpt lat="44.58152" lon="-0.19836">
        <ele>63.1</ele>
        <time>2018-05-13T08:51:14Z</time>
      </trkpt>
      <trkpt lat="44.58152" lon="-0.19828">
        <ele>63.1</ele>
        <time>2018-05-13T08:51:22Z</time>
      </trkpt>
      <trkpt lat="44.58152" lon="-0.19823">
        <ele>63.1</ele>
        <time>2018-05-13T08:51:26Z</time>
      </trkpt>
      <trkpt lat="44.58153" lon="-0.19803">
        <ele>63.58</ele>
        <time>2018-05-13T08:51:41Z</time>
      </trkpt>
      <trkpt lat="44.58155" lon="-0.19805">
        <ele>63.58</ele>
        <time>2018-05-13T08:51:50Z</time>
      </trkpt>
      <trkpt lat="44.58156" lon="-0.19815">
        <ele>62.62</ele>
        <time>2018-05-13T08:51:58Z</time>
      </trkpt>
      <trkpt lat="44.58157" lon="-0.19833">
        <ele>61.66</ele>
        <time>2018-05-13T08:52:13Z</time>
      </trkpt>
      <trkpt lat="44.58158" lon="-0.19845">
        <ele>60.7</ele>
        <time>2018-05-13T08:52:27Z</time>
      </trkpt>
      <trkpt lat="44.5816" lon="-0.19856">
        <ele>59.74</ele>
        <time>2018-05-13T08:52:40Z</time>
      </trkpt>
      <trkpt lat="44.58163" lon="-0.1986">
        <ele>59.74</ele>
        <time>2018-05-13T08:52:56Z</time>
      </trkpt>
      <trkpt lat="44.58163" lon="-0.19864">
        <ele>59.74</ele>
        <time>2018-05-13T08:53:10Z</time>
      </trkpt>
      <trkpt lat="44.58167" lon="-0.19862">
        <ele>59.74</ele>
        <time>2018-05-13T08:53:22Z</time>
      </trkpt>
      <trkpt lat="44.58173" lon="-0.19861">
        <ele>59.74</ele>
        <time>2018-05-13T08:53:32Z</time>
      </trkpt>
      <trkpt lat="44.58187" lon="-0.1986">
        <ele>60.7</ele>
        <time>2018-05-13T08:53:46Z</time>
      </trkpt>
      <trkpt lat="44.58205" lon="-0.19857">
        <ele>61.18</ele>
        <time>2018-05-13T08:54:03Z</time>
      </trkpt>
      <trkpt lat="44.58226" lon="-0.19852">
        <ele>61.66</ele>
        <time>2018-05-13T08:54:21Z</time>
      </trkpt>
      <trkpt lat="44.58247" lon="-0.19842">
        <ele>61.66</ele>
        <time>2018-05-13T08:54:40Z</time>
      </trkpt>
      <trkpt lat="44.58268" lon="-0.19832">
        <ele>61.66</ele>
        <time>2018-05-13T08:54:59Z</time>
      </trkpt>
      <trkpt lat="44.58287" lon="-0.19822">
        <ele>61.66</ele>
        <time>2018-05-13T08:55:17Z</time>
      </trkpt>
      <trkpt lat="44.58308" lon="-0.19818">
        <ele>62.62</ele>
        <time>2018-05-13T08:55:35Z</time>
      </trkpt>
      <trkpt lat="44.5833" lon="-0.19819">
        <ele>63.1</ele>
        <time>2018-05-13T08:55:54Z</time>
      </trkpt>
      <trkpt lat="44.58347" lon="-0.19832">
        <ele>64.07</ele>
        <time>2018-05-13T08:56:10Z</time>
      </trkpt>
      <trkpt lat="44.58366" lon="-0.19852">
        <ele>65.03</ele>
        <time>2018-05-13T08:56:29Z</time>
      </trkpt>
      <trkpt lat="44.58385" lon="-0.19872">
        <ele>65.03</ele>
        <time>2018-05-13T08:56:49Z</time>
      </trkpt>
      <trkpt lat="44.58403" lon="-0.19888">
        <ele>65.51</ele>
        <time>2018-05-13T08:57:07Z</time>
      </trkpt>
      <trkpt lat="44.58424" lon="-0.19904">
        <ele>66.47</ele>
        <time>2018-05-13T08:57:28Z</time>
      </trkpt>
      <trkpt lat="44.58445" lon="-0.19915">
        <ele>65.99</ele>
        <time>2018-05-13T08:57:47Z</time>
      </trkpt>
      <trkpt lat="44.58463" lon="-0.19927">
        <ele>65.99</ele>
        <time>2018-05-13T08:58:04Z</time>
      </trkpt>
      <trkpt lat="44.58471" lon="-0.19934">
        <ele>66.47</ele>
        <time>2018-05-13T08:58:13Z</time>
      </trkpt>
      <trkpt lat="44.58483" lon="-0.19955">
        <ele>66.95</ele>
        <time>2018-05-13T08:58:30Z</time>
      </trkpt>
      <trkpt lat="44.58491" lon="-0.1998">
        <ele>66.95</ele>
        <time>2018-05-13T08:58:49Z</time>
      </trkpt>
      <trkpt lat="44.58499" lon="-0.20002">
        <ele>65.03</ele>
        <time>2018-05-13T08:59:06Z</time>
      </trkpt>
      <trkpt lat="44.58501" lon="-0.20002">
        <ele>64.55</ele>
        <time>2018-05-13T08:59:20Z</time>
      </trkpt>
      <trkpt lat="44.585" lon="-0.2">
        <ele>64.55</ele>
        <time>2018-05-13T08:59:42Z</time>
      </trkpt>
      <trkpt lat="44.58498" lon="-0.20004">
        <ele>64.55</ele>
        <time>2018-05-13T09:00:01Z</time>
      </trkpt>
      <trkpt lat="44.58497" lon="-0.20002">
        <ele>64.55</ele>
        <time>2018-05-13T09:00:04Z</time>
      </trkpt>
      <trkpt lat="44.5849" lon="-0.19982">
        <ele>65.99</ele>
        <time>2018-05-13T09:00:20Z</time>
      </trkpt>
      <trkpt lat="44.5849" lon="-0.19954">
        <ele>66.95</ele>
        <time>2018-05-13T09:00:37Z</time>
      </trkpt>
      <trkpt lat="44.58499" lon="-0.19937">
        <ele>67.43</ele>
        <time>2018-05-13T09:00:53Z</time>
      </trkpt>
      <trkpt lat="44.5851" lon="-0.19931">
        <ele>68.87</ele>
        <time>2018-05-13T09:01:07Z</time>
      </trkpt>
      <trkpt lat="44.58515" lon="-0.19929">
        <ele>69.35</ele>
        <time>2018-05-13T09:01:14Z</time>
      </trkpt>
      <trkpt lat="44.58532" lon="-0.19928">
        <ele>70.79</ele>
        <time>2018-05-13T09:01:31Z</time>
      </trkpt>
      <trkpt lat="44.58534" lon="-0.19928">
        <ele>70.79</ele>
        <time>2018-05-13T09:01:34Z</time>
      </trkpt>
      <trkpt lat="44.58551" lon="-0.19928">
        <ele>71.27</ele>
        <time>2018-05-13T09:01:50Z</time>
      </trkpt>
      <trkpt lat="44.58567" lon="-0.19939">
        <ele>72.72</ele>
        <time>2018-05-13T09:02:05Z</time>
      </trkpt>
      <trkpt lat="44.58582" lon="-0.19951">
        <ele>73.68</ele>
        <time>2018-05-13T09:02:20Z</time>
      </trkpt>
      <trkpt lat="44.586" lon="-0.19963">
        <ele>74.64</ele>
        <time>2018-05-13T09:02:37Z</time>
      </trkpt>
      <trkpt lat="44.58617" lon="-0.19973">
        <ele>75.6</ele>
        <time>2018-05-13T09:02:53Z</time>
      </trkpt>
      <trkpt lat="44.58635" lon="-0.19984">
        <ele>77.04</ele>
        <time>2018-05-13T09:03:10Z</time>
      </trkpt>
      <trkpt lat="44.5865" lon="-0.19993">
        <ele>78</ele>
        <time>2018-05-13T09:03:25Z</time>
      </trkpt>
      <trkpt lat="44.58665" lon="-0.20002">
        <ele>80.41</ele>
        <time>2018-05-13T09:03:40Z</time>
      </trkpt>
      <trkpt lat="44.58678" lon="-0.20009">
        <ele>81.85</ele>
        <time>2018-05-13T09:03:54Z</time>
      </trkpt>
      <trkpt lat="44.58683" lon="-0.20012">
        <ele>82.33</ele>
        <time>2018-05-13T09:03:59Z</time>
      </trkpt>
      <trkpt lat="44.58684" lon="-0.20014">
        <ele>82.33</ele>
        <time>2018-05-13T09:04:01Z</time>
      </trkpt>
      <trkpt lat="44.58699" lon="-0.20023">
        <ele>84.73</ele>
        <time>2018-05-13T09:04:16Z</time>
      </trkpt>
      <trkpt lat="44.58702" lon="-0.20026">
        <ele>84.73</ele>
        <time>2018-05-13T09:04:20Z</time>
      </trkpt>
      <trkpt lat="44.58716" lon="-0.20037">
        <ele>86.18</ele>
        <time>2018-05-13T09:04:35Z</time>
      </trkpt>
      <trkpt lat="44.58729" lon="-0.20052">
        <ele>87.62</ele>
        <time>2018-05-13T09:04:50Z</time>
      </trkpt>
      <trkpt lat="44.58743" lon="-0.20067">
        <ele>89.54</ele>
        <time>2018-05-13T09:05:06Z</time>
      </trkpt>
      <trkpt lat="44.58752" lon="-0.20076">
        <ele>90.5</ele>
        <time>2018-05-13T09:05:23Z</time>
      </trkpt>
      <trkpt lat="44.58761" lon="-0.20086">
        <ele>90.98</ele>
        <time>2018-05-13T09:05:35Z</time>
      </trkpt>
      <trkpt lat="44.58775" lon="-0.20098">
        <ele>92.9</ele>
        <time>2018-05-13T09:05:50Z</time>
      </trkpt>
      <trkpt lat="44.5879" lon="-0.20109">
        <ele>93.87</ele>
        <time>2018-05-13T09:06:06Z</time>
      </trkpt>
      <trkpt lat="44.58793" lon="-0.20112">
        <ele>94.35</ele>
        <time>2018-05-13T09:06:09Z</time>
      </trkpt>
      <trkpt lat="44.58795" lon="-0.20112">
        <ele>94.35</ele>
        <time>2018-05-13T09:06:11Z</time>
      </trkpt>
      <trkpt lat="44.58797" lon="-0.20114">
        <ele>94.83</ele>
        <time>2018-05-13T09:06:13Z</time>
      </trkpt>
      <trkpt lat="44.58801" lon="-0.20117">
        <ele>95.31</ele>
        <time>2018-05-13T09:06:18Z</time>
      </trkpt>
      <trkpt lat="44.58812" lon="-0.20124">
        <ele>96.75</ele>
        <time>2018-05-13T09:06:31Z</time>
      </trkpt>
      <trkpt lat="44.58823" lon="-0.20131">
        <ele>98.19</ele>
        <time>2018-05-13T09:06:42Z</time>
      </trkpt>
      <trkpt lat="44.58833" lon="-0.20137">
        <ele>98.67</ele>
        <time>2018-05-13T09:06:51Z</time>
      </trkpt>
      <trkpt lat="44.58849" lon="-0.20145">
        <ele>100.11</ele>
        <time>2018-05-13T09:07:07Z</time>
      </trkpt>
      <trkpt lat="44.58864" lon="-0.20157">
        <ele>101.56</ele>
        <time>2018-05-13T09:07:22Z</time>
      </trkpt>
      <trkpt lat="44.58879" lon="-0.20171">
        <ele>103.48</ele>
        <time>2018-05-13T09:07:38Z</time>
      </trkpt>
      <trkpt lat="44.58879" lon="-0.20172">
        <ele>103.48</ele>
        <time>2018-05-13T09:07:39Z</time>
      </trkpt>
      <trkpt lat="44.58895" lon="-0.20185">
        <ele>104.92</ele>
        <time>2018-05-13T09:07:55Z</time>
      </trkpt>
      <trkpt lat="44.58902" lon="-0.20191">
        <ele>106.84</ele>
        <time>2018-05-13T09:08:03Z</time>
      </trkpt>
      <trkpt lat="44.58906" lon="-0.20217">
        <ele>107.81</ele>
        <time>2018-05-13T09:08:20Z</time>
      </trkpt>
      <trkpt lat="44.58906" lon="-0.20243">
        <ele>108.77</ele>
        <time>2018-05-13T09:08:36Z</time>
      </trkpt>
      <trkpt lat="44.58907" lon="-0.20254">
        <ele>109.25</ele>
        <time>2018-05-13T09:08:43Z</time>
      </trkpt>
      <trkpt lat="44.589" lon="-0.20264">
        <ele>109.25</ele>
        <time>2018-05-13T09:08:58Z</time>
      </trkpt>
      <trkpt lat="44.58892" lon="-0.20271">
        <ele>109.25</ele>
        <time>2018-05-13T09:09:11Z</time>
      </trkpt>
      <trkpt lat="44.58892" lon="-0.20273">
        <ele>108.29</ele>
        <time>2018-05-13T09:09:24Z</time>
      </trkpt>
      <trkpt lat="44.58892" lon="-0.20279">
        <ele>108.29</ele>
        <time>2018-05-13T09:09:47Z</time>
      </trkpt>
      <trkpt lat="44.58893" lon="-0.20283">
        <ele>107.81</ele>
        <time>2018-05-13T09:10:02Z</time>
      </trkpt>
      <trkpt lat="44.58891" lon="-0.20293">
        <ele>107.32</ele>
        <time>2018-05-13T09:10:15Z</time>
      </trkpt>
      <trkpt lat="44.5889" lon="-0.20296">
        <ele>106.36</ele>
        <time>2018-05-13T09:10:17Z</time>
      </trkpt>
      <trkpt lat="44.5889" lon="-0.20299">
        <ele>105.88</ele>
        <time>2018-05-13T09:10:20Z</time>
      </trkpt>
      <trkpt lat="44.58889" lon="-0.20325">
        <ele>103.96</ele>
        <time>2018-05-13T09:10:37Z</time>
      </trkpt>
      <trkpt lat="44.589" lon="-0.20339">
        <ele>103.48</ele>
        <time>2018-05-13T09:10:52Z</time>
      </trkpt>
      <trkpt lat="44.58908" lon="-0.20345">
        <ele>103</ele>
        <time>2018-05-13T09:11:02Z</time>
      </trkpt>
      <trkpt lat="44.58926" lon="-0.20346">
        <ele>103.96</ele>
        <time>2018-05-13T09:11:18Z</time>
      </trkpt>
      <trkpt lat="44.5893" lon="-0.20347">
        <ele>104.44</ele>
        <time>2018-05-13T09:11:22Z</time>
      </trkpt>
      <trkpt lat="44.5895" lon="-0.20348">
        <ele>105.88</ele>
        <time>2018-05-13T09:11:40Z</time>
      </trkpt>
      <trkpt lat="44.58969" lon="-0.20348">
        <ele>106.84</ele>
        <time>2018-05-13T09:11:56Z</time>
      </trkpt>
      <trkpt lat="44.58988" lon="-0.20347">
        <ele>107.81</ele>
        <time>2018-05-13T09:12:12Z</time>
      </trkpt>
      <trkpt lat="44.59002" lon="-0.20347">
        <ele>108.29</ele>
        <time>2018-05-13T09:12:25Z</time>
      </trkpt>
      <trkpt lat="44.59004" lon="-0.20351">
        <ele>108.29</ele>
        <time>2018-05-13T09:12:29Z</time>
      </trkpt>
      <trkpt lat="44.59006" lon="-0.20371">
        <ele>105.4</ele>
        <time>2018-05-13T09:12:45Z</time>
      </trkpt>
      <trkpt lat="44.59005" lon="-0.20376">
        <ele>105.4</ele>
        <time>2018-05-13T09:12:48Z</time>
      </trkpt>
      <trkpt lat="44.59006" lon="-0.20392">
        <ele>102.52</ele>
        <time>2018-05-13T09:13:00Z</time>
      </trkpt>
      <trkpt lat="44.59005" lon="-0.20415">
        <ele>99.63</ele>
        <time>2018-05-13T09:13:16Z</time>
      </trkpt>
      <trkpt lat="44.59003" lon="-0.20432">
        <ele>97.71</ele>
        <time>2018-05-13T09:13:28Z</time>
      </trkpt>
      <trkpt lat="44.59003" lon="-0.20439">
        <ele>96.75</ele>
        <time>2018-05-13T09:13:33Z</time>
      </trkpt>
      <trkpt lat="44.59003" lon="-0.20444">
        <ele>96.27</ele>
        <time>2018-05-13T09:13:36Z</time>
      </trkpt>
      <trkpt lat="44.59003" lon="-0.20465">
        <ele>93.39</ele>
        <time>2018-05-13T09:13:50Z</time>
      </trkpt>
      <trkpt lat="44.59003" lon="-0.20468">
        <ele>93.39</ele>
        <time>2018-05-13T09:13:52Z</time>
      </trkpt>
      <trkpt lat="44.59002" lon="-0.20475">
        <ele>92.42</ele>
        <time>2018-05-13T09:13:57Z</time>
      </trkpt>
      <trkpt lat="44.59" lon="-0.20492">
        <ele>90.5</ele>
        <time>2018-05-13T09:14:09Z</time>
      </trkpt>
      <trkpt lat="44.58988" lon="-0.20507">
        <ele>89.06</ele>
        <time>2018-05-13T09:14:25Z</time>
      </trkpt>
      <trkpt lat="44.58984" lon="-0.2051">
        <ele>88.58</ele>
        <time>2018-05-13T09:14:29Z</time>
      </trkpt>
      <trkpt lat="44.58965" lon="-0.20514">
        <ele>86.66</ele>
        <time>2018-05-13T09:14:46Z</time>
      </trkpt>
      <trkpt lat="44.58945" lon="-0.20518">
        <ele>84.73</ele>
        <time>2018-05-13T09:15:04Z</time>
      </trkpt>
      <trkpt lat="44.58937" lon="-0.20532">
        <ele>84.25</ele>
        <time>2018-05-13T09:15:16Z</time>
      </trkpt>
      <trkpt lat="44.58937" lon="-0.20567">
        <ele>86.18</ele>
        <time>2018-05-13T09:15:37Z</time>
      </trkpt>
      <trkpt lat="44.58938" lon="-0.20597">
        <ele>84.73</ele>
        <time>2018-05-13T09:15:55Z</time>
      </trkpt>
      <trkpt lat="44.58938" lon="-0.20625">
        <ele>81.85</ele>
        <time>2018-05-13T09:16:12Z</time>
      </trkpt>
      <trkpt lat="44.58935" lon="-0.20649">
        <ele>79.45</ele>
        <time>2018-05-13T09:16:28Z</time>
      </trkpt>
      <trkpt lat="44.58932" lon="-0.2065">
        <ele>79.45</ele>
        <time>2018-05-13T09:16:31Z</time>
      </trkpt>
      <trkpt lat="44.58917" lon="-0.20653">
        <ele>78</ele>
        <time>2018-05-13T09:16:47Z</time>
      </trkpt>
      <trkpt lat="44.58916" lon="-0.20674">
        <ele>77.52</ele>
        <time>2018-05-13T09:17:01Z</time>
      </trkpt>
      <trkpt lat="44.58918" lon="-0.20682">
        <ele>78.97</ele>
        <time>2018-05-13T09:17:06Z</time>
      </trkpt>
      <trkpt lat="44.5892" lon="-0.20697">
        <ele>80.41</ele>
        <time>2018-05-13T09:17:20Z</time>
      </trkpt>
      <trkpt lat="44.58926" lon="-0.20712">
        <ele>81.85</ele>
        <time>2018-05-13T09:17:33Z</time>
      </trkpt>
      <trkpt lat="44.58933" lon="-0.20733">
        <ele>84.73</ele>
        <time>2018-05-13T09:17:49Z</time>
      </trkpt>
      <trkpt lat="44.58936" lon="-0.2075">
        <ele>86.66</ele>
        <time>2018-05-13T09:18:02Z</time>
      </trkpt>
      <trkpt lat="44.58934" lon="-0.20757">
        <ele>87.14</ele>
        <time>2018-05-13T09:18:15Z</time>
      </trkpt>
      <trkpt lat="44.58933" lon="-0.20756">
        <ele>87.14</ele>
        <time>2018-05-13T09:18:33Z</time>
      </trkpt>
      <trkpt lat="44.58933" lon="-0.20757">
        <ele>87.14</ele>
        <time>2018-05-13T09:19:00Z</time>
      </trkpt>
      <trkpt lat="44.58932" lon="-0.20759">
        <ele>87.14</ele>
        <time>2018-05-13T09:19:28Z</time>
      </trkpt>
      <trkpt lat="44.58931" lon="-0.20757">
        <ele>87.14</ele>
        <time>2018-05-13T09:19:33Z</time>
      </trkpt>
      <trkpt lat="44.58926" lon="-0.20762">
        <ele>87.14</ele>
        <time>2018-05-13T09:19:49Z</time>
      </trkpt>
      <trkpt lat="44.58921" lon="-0.20765">
        <ele>86.66</ele>
        <time>2018-05-13T09:20:06Z</time>
      </trkpt>
      <trkpt lat="44.58921" lon="-0.20765">
        <ele>87.14</ele>
        <time>2018-05-13T09:20:07Z</time>
      </trkpt>
      <trkpt lat="44.58906" lon="-0.20777">
        <ele>87.14</ele>
        <time>2018-05-13T09:20:25Z</time>
      </trkpt>
      <trkpt lat="44.58891" lon="-0.20785">
        <ele>87.62</ele>
        <time>2018-05-13T09:20:40Z</time>
      </trkpt>
      <trkpt lat="44.58872" lon="-0.20791">
        <ele>88.58</ele>
        <time>2018-05-13T09:20:57Z</time>
      </trkpt>
      <trkpt lat="44.5887" lon="-0.20791">
        <ele>89.06</ele>
        <time>2018-05-13T09:20:59Z</time>
      </trkpt>
      <trkpt lat="44.58868" lon="-0.20791">
        <ele>89.54</ele>
        <time>2018-05-13T09:21:01Z</time>
      </trkpt>
      <trkpt lat="44.58849" lon="-0.20793">
        <ele>90.5</ele>
        <time>2018-05-13T09:21:18Z</time>
      </trkpt>
      <trkpt lat="44.58838" lon="-0.20793">
        <ele>92.42</ele>
        <time>2018-05-13T09:21:29Z</time>
      </trkpt>
      <trkpt lat="44.58825" lon="-0.20803">
        <ele>94.83</ele>
        <time>2018-05-13T09:21:44Z</time>
      </trkpt>
      <trkpt lat="44.58824" lon="-0.20804">
        <ele>95.79</ele>
        <time>2018-05-13T09:21:45Z</time>
      </trkpt>
      <trkpt lat="44.58813" lon="-0.20818">
        <ele>98.67</ele>
        <time>2018-05-13T09:21:59Z</time>
      </trkpt>
      <trkpt lat="44.58803" lon="-0.20832">
        <ele>100.6</ele>
        <time>2018-05-13T09:22:13Z</time>
      </trkpt>
      <trkpt lat="44.58795" lon="-0.20841">
        <ele>102.52</ele>
        <time>2018-05-13T09:22:24Z</time>
      </trkpt>
      <trkpt lat="44.58793" lon="-0.20845">
        <ele>103</ele>
        <time>2018-05-13T09:22:28Z</time>
      </trkpt>
      <trkpt lat="44.58795" lon="-0.20857">
        <ele>103.48</ele>
        <time>2018-05-13T09:22:43Z</time>
      </trkpt>
      <trkpt lat="44.58796" lon="-0.20861">
        <ele>103.96</ele>
        <time>2018-05-13T09:23:08Z</time>
      </trkpt>
      <trkpt lat="44.58798" lon="-0.2086">
        <ele>103.96</ele>
        <time>2018-05-13T09:23:29Z</time>
      </trkpt>
      <trkpt lat="44.58797" lon="-0.2086">
        <ele>103.96</ele>
        <time>2018-05-13T09:23:56Z</time>
      </trkpt>
      <trkpt lat="44.58796" lon="-0.20859">
        <ele>103.96</ele>
        <time>2018-05-13T09:24:10Z</time>
      </trkpt>
      <trkpt lat="44.58796" lon="-0.20859">
        <ele>103.96</ele>
        <time>2018-05-13T09:24:27Z</time>
      </trkpt>
      <trkpt lat="44.58796" lon="-0.20861">
        <ele>102.52</ele>
        <time>2018-05-13T09:24:45Z</time>
      </trkpt>
      <trkpt lat="44.58798" lon="-0.20857">
        <ele>102.52</ele>
        <time>2018-05-13T09:25:02Z</time>
      </trkpt>
      <trkpt lat="44.58799" lon="-0.20861">
        <ele>102.52</ele>
        <time>2018-05-13T09:25:09Z</time>
      </trkpt>
      <trkpt lat="44.58807" lon="-0.20873">
        <ele>103.96</ele>
        <time>2018-05-13T09:25:20Z</time>
      </trkpt>
      <trkpt lat="44.58821" lon="-0.20893">
        <ele>105.4</ele>
        <time>2018-05-13T09:25:39Z</time>
      </trkpt>
      <trkpt lat="44.58832" lon="-0.20917">
        <ele>106.36</ele>
        <time>2018-05-13T09:25:57Z</time>
      </trkpt>
      <trkpt lat="44.58837" lon="-0.20939">
        <ele>108.29</ele>
        <time>2018-05-13T09:26:12Z</time>
      </trkpt>
      <trkpt lat="44.58843" lon="-0.2096">
        <ele>110.21</ele>
        <time>2018-05-13T09:26:25Z</time>
      </trkpt>
      <trkpt lat="44.58849" lon="-0.20986">
        <ele>112.13</ele>
        <time>2018-05-13T09:26:42Z</time>
      </trkpt>
      <trkpt lat="44.58857" lon="-0.21014">
        <ele>112.13</ele>
        <time>2018-05-13T09:26:59Z</time>
      </trkpt>
      <trkpt lat="44.58858" lon="-0.21025">
        <ele>111.65</ele>
        <time>2018-05-13T09:27:06Z</time>
      </trkpt>
      <trkpt lat="44.58858" lon="-0.2103">
        <ele>110.69</ele>
        <time>2018-05-13T09:27:11Z</time>
      </trkpt>
      <trkpt lat="44.58859" lon="-0.21031">
        <ele>107.81</ele>
        <time>2018-05-13T09:27:20Z</time>
      </trkpt>
      <trkpt lat="44.58859" lon="-0.2103">
        <ele>109.73</ele>
        <time>2018-05-13T09:27:25Z</time>
      </trkpt>
      <trkpt lat="44.58859" lon="-0.21028">
        <ele>109.73</ele>
        <time>2018-05-13T09:27:35Z</time>
      </trkpt>
      <trkpt lat="44.58857" lon="-0.21026">
        <ele>109.73</ele>
        <time>2018-05-13T09:27:37Z</time>
      </trkpt>
      <trkpt lat="44.58842" lon="-0.21035">
        <ele>110.69</ele>
        <time>2018-05-13T09:27:53Z</time>
      </trkpt>
      <trkpt lat="44.58826" lon="-0.21048">
        <ele>110.69</ele>
        <time>2018-05-13T09:28:09Z</time>
      </trkpt>
      <trkpt lat="44.58813" lon="-0.21058">
        <ele>109.25</ele>
        <time>2018-05-13T09:28:22Z</time>
      </trkpt>
      <trkpt lat="44.58804" lon="-0.21066">
        <ele>109.25</ele>
        <time>2018-05-13T09:28:34Z</time>
      </trkpt>
      <trkpt lat="44.58798" lon="-0.21078">
        <ele>108.29</ele>
        <time>2018-05-13T09:28:43Z</time>
      </trkpt>
      <trkpt lat="44.58782" lon="-0.21091">
        <ele>108.29</ele>
        <time>2018-05-13T09:28:59Z</time>
      </trkpt>
      <trkpt lat="44.58766" lon="-0.21105">
        <ele>108.29</ele>
        <time>2018-05-13T09:29:15Z</time>
      </trkpt>
      <trkpt lat="44.58744" lon="-0.21121">
        <ele>108.29</ele>
        <time>2018-05-13T09:29:34Z</time>
      </trkpt>
      <trkpt lat="44.58735" lon="-0.21124">
        <ele>108.29</ele>
        <time>2018-05-13T09:29:41Z</time>
      </trkpt>
      <trkpt lat="44.58719" lon="-0.21138">
        <ele>108.29</ele>
        <time>2018-05-13T09:29:56Z</time>
      </trkpt>
      <trkpt lat="44.5871" lon="-0.21144">
        <ele>110.69</ele>
        <time>2018-05-13T09:30:05Z</time>
      </trkpt>
      <trkpt lat="44.58692" lon="-0.21159">
        <ele>109.25</ele>
        <time>2018-05-13T09:30:23Z</time>
      </trkpt>
      <trkpt lat="44.58679" lon="-0.21176">
        <ele>109.25</ele>
        <time>2018-05-13T09:30:40Z</time>
      </trkpt>
      <trkpt lat="44.58676" lon="-0.2118">
        <ele>111.17</ele>
        <time>2018-05-13T09:30:44Z</time>
      </trkpt>
      <trkpt lat="44.58658" lon="-0.21195">
        <ele>111.17</ele>
        <time>2018-05-13T09:31:01Z</time>
      </trkpt>
      <trkpt lat="44.58643" lon="-0.21206">
        <ele>111.17</ele>
        <time>2018-05-13T09:31:15Z</time>
      </trkpt>
      <trkpt lat="44.58639" lon="-0.2121">
        <ele>110.21</ele>
        <time>2018-05-13T09:31:20Z</time>
      </trkpt>
      <trkpt lat="44.58619" lon="-0.21218">
        <ele>110.21</ele>
        <time>2018-05-13T09:31:36Z</time>
      </trkpt>
      <trkpt lat="44.58603" lon="-0.21231">
        <ele>109.73</ele>
        <time>2018-05-13T09:31:53Z</time>
      </trkpt>
      <trkpt lat="44.58585" lon="-0.21239">
        <ele>109.25</ele>
        <time>2018-05-13T09:32:08Z</time>
      </trkpt>
      <trkpt lat="44.58571" lon="-0.21251">
        <ele>108.29</ele>
        <time>2018-05-13T09:32:24Z</time>
      </trkpt>
      <trkpt lat="44.58551" lon="-0.21255">
        <ele>107.81</ele>
        <time>2018-05-13T09:32:41Z</time>
      </trkpt>
      <trkpt lat="44.58547" lon="-0.21255">
        <ele>108.29</ele>
        <time>2018-05-13T09:32:50Z</time>
      </trkpt>
      <trkpt lat="44.58544" lon="-0.2123">
        <ele>109.25</ele>
        <time>2018-05-13T09:33:07Z</time>
      </trkpt>
      <trkpt lat="44.58544" lon="-0.21229">
        <ele>109.25</ele>
        <time>2018-05-13T09:33:08Z</time>
      </trkpt>
      <trkpt lat="44.58542" lon="-0.21213">
        <ele>109.25</ele>
        <time>2018-05-13T09:33:20Z</time>
      </trkpt>
      <trkpt lat="44.5854" lon="-0.21207">
        <ele>109.73</ele>
        <time>2018-05-13T09:33:31Z</time>
      </trkpt>
      <trkpt lat="44.58537" lon="-0.21204">
        <ele>109.73</ele>
        <time>2018-05-13T09:33:42Z</time>
      </trkpt>
      <trkpt lat="44.58534" lon="-0.21204">
        <ele>109.73</ele>
        <time>2018-05-13T09:34:01Z</time>
      </trkpt>
      <trkpt lat="44.58534" lon="-0.21202">
        <ele>109.73</ele>
        <time>2018-05-13T09:34:22Z</time>
      </trkpt>
      <trkpt lat="44.58536" lon="-0.21199">
        <ele>109.73</ele>
        <time>2018-05-13T09:34:26Z</time>
      </trkpt>
      <trkpt lat="44.58536" lon="-0.21194">
        <ele>109.73</ele>
        <time>2018-05-13T09:34:30Z</time>
      </trkpt>
      <trkpt lat="44.58536" lon="-0.21188">
        <ele>110.21</ele>
        <time>2018-05-13T09:34:34Z</time>
      </trkpt>
      <trkpt lat="44.58537" lon="-0.21158">
        <ele>110.69</ele>
        <time>2018-05-13T09:34:54Z</time>
      </trkpt>
      <trkpt lat="44.58537" lon="-0.21148">
        <ele>111.17</ele>
        <time>2018-05-13T09:35:00Z</time>
      </trkpt>
      <trkpt lat="44.58535" lon="-0.21123">
        <ele>111.65</ele>
        <time>2018-05-13T09:35:17Z</time>
      </trkpt>
      <trkpt lat="44.58533" lon="-0.21094">
        <ele>111.65</ele>
        <time>2018-05-13T09:35:34Z</time>
      </trkpt>
      <trkpt lat="44.5853" lon="-0.21065">
        <ele>110.69</ele>
        <time>2018-05-13T09:35:51Z</time>
      </trkpt>
      <trkpt lat="44.58524" lon="-0.2103">
        <ele>108.77</ele>
        <time>2018-05-13T09:36:11Z</time>
      </trkpt>
      <trkpt lat="44.58512" lon="-0.21006">
        <ele>108.77</ele>
        <time>2018-05-13T09:36:27Z</time>
      </trkpt>
      <trkpt lat="44.58491" lon="-0.20989">
        <ele>108.77</ele>
        <time>2018-05-13T09:36:46Z</time>
      </trkpt>
      <trkpt lat="44.5847" lon="-0.20981">
        <ele>108.77</ele>
        <time>2018-05-13T09:37:04Z</time>
      </trkpt>
      <trkpt lat="44.5846" lon="-0.20975">
        <ele>108.29</ele>
        <time>2018-05-13T09:37:13Z</time>
      </trkpt>
      <trkpt lat="44.58441" lon="-0.20962">
        <ele>106.84</ele>
        <time>2018-05-13T09:37:30Z</time>
      </trkpt>
      <trkpt lat="44.58422" lon="-0.20955">
        <ele>104.92</ele>
        <time>2018-05-13T09:37:48Z</time>
      </trkpt>
      <trkpt lat="44.58399" lon="-0.20955">
        <ele>102.04</ele>
        <time>2018-05-13T09:38:06Z</time>
      </trkpt>
      <trkpt lat="44.58381" lon="-0.20954">
        <ele>100.11</ele>
        <time>2018-05-13T09:38:21Z</time>
      </trkpt>
      <trkpt lat="44.58366" lon="-0.20955">
        <ele>98.19</ele>
        <time>2018-05-13T09:38:38Z</time>
      </trkpt>
      <trkpt lat="44.58361" lon="-0.20953">
        <ele>97.71</ele>
        <time>2018-05-13T09:38:52Z</time>
      </trkpt>
      <trkpt lat="44.5834" lon="-0.2095">
        <ele>95.31</ele>
        <time>2018-05-13T09:39:10Z</time>
      </trkpt>
      <trkpt lat="44.58317" lon="-0.20937">
        <ele>93.87</ele>
        <time>2018-05-13T09:39:31Z</time>
      </trkpt>
      <trkpt lat="44.58309" lon="-0.20925">
        <ele>92.9</ele>
        <time>2018-05-13T09:39:41Z</time>
      </trkpt>
      <trkpt lat="44.58295" lon="-0.20902">
        <ele>92.42</ele>
        <time>2018-05-13T09:40:00Z</time>
      </trkpt>
      <trkpt lat="44.58288" lon="-0.20873">
        <ele>91.94</ele>
        <time>2018-05-13T09:40:19Z</time>
      </trkpt>
      <trkpt lat="44.58284" lon="-0.20856">
        <ele>91.46</ele>
        <time>2018-05-13T09:40:33Z</time>
      </trkpt>
      <trkpt lat="44.58278" lon="-0.20878">
        <ele>89.54</ele>
        <time>2018-05-13T09:40:50Z</time>
      </trkpt>
      <trkpt lat="44.58278" lon="-0.2088">
        <ele>89.54</ele>
        <time>2018-05-13T09:40:51Z</time>
      </trkpt>
      <trkpt lat="44.58274" lon="-0.20882">
        <ele>88.58</ele>
        <time>2018-05-13T09:40:55Z</time>
      </trkpt>
      <trkpt lat="44.58271" lon="-0.20883">
        <ele>88.1</ele>
        <time>2018-05-13T09:40:59Z</time>
      </trkpt>
      <trkpt lat="44.58263" lon="-0.20887">
        <ele>86.18</ele>
        <time>2018-05-13T09:41:07Z</time>
      </trkpt>
      <trkpt lat="44.58244" lon="-0.2089">
        <ele>82.33</ele>
        <time>2018-05-13T09:41:25Z</time>
      </trkpt>
      <trkpt lat="44.58224" lon="-0.20894">
        <ele>80.41</ele>
        <time>2018-05-13T09:41:42Z</time>
      </trkpt>
      <trkpt lat="44.58205" lon="-0.20896">
        <ele>77.04</ele>
        <time>2018-05-13T09:41:58Z</time>
      </trkpt>
      <trkpt lat="44.58185" lon="-0.20897">
        <ele>74.16</ele>
        <time>2018-05-13T09:42:15Z</time>
      </trkpt>
      <trkpt lat="44.58164" lon="-0.20894">
        <ele>71.27</ele>
        <time>2018-05-13T09:42:34Z</time>
      </trkpt>
      <trkpt lat="44.58156" lon="-0.20891">
        <ele>70.31</ele>
        <time>2018-05-13T09:42:41Z</time>
      </trkpt>
      <trkpt lat="44.58139" lon="-0.20883">
        <ele>68.87</ele>
        <time>2018-05-13T09:42:57Z</time>
      </trkpt>
      <trkpt lat="44.58122" lon="-0.20873">
        <ele>67.43</ele>
        <time>2018-05-13T09:43:13Z</time>
      </trkpt>
      <trkpt lat="44.58108" lon="-0.20866">
        <ele>66.95</ele>
        <time>2018-05-13T09:43:27Z</time>
      </trkpt>
      <trkpt lat="44.58103" lon="-0.20871">
        <ele>66.47</ele>
        <time>2018-05-13T09:43:32Z</time>
      </trkpt>
      <trkpt lat="44.581" lon="-0.20876">
        <ele>65.99</ele>
        <time>2018-05-13T09:43:35Z</time>
      </trkpt>
      <trkpt lat="44.58094" lon="-0.20903">
        <ele>63.1</ele>
        <time>2018-05-13T09:43:54Z</time>
      </trkpt>
      <trkpt lat="44.58093" lon="-0.20908">
        <ele>62.62</ele>
        <time>2018-05-13T09:43:58Z</time>
      </trkpt>
      <trkpt lat="44.58089" lon="-0.20935">
        <ele>61.18</ele>
        <time>2018-05-13T09:44:15Z</time>
      </trkpt>
      <trkpt lat="44.58087" lon="-0.20942">
        <ele>60.7</ele>
        <time>2018-05-13T09:44:20Z</time>
      </trkpt>
      <trkpt lat="44.58086" lon="-0.20944">
        <ele>60.7</ele>
        <time>2018-05-13T09:44:22Z</time>
      </trkpt>
      <trkpt lat="44.58072" lon="-0.20951">
        <ele>59.74</ele>
        <time>2018-05-13T09:44:36Z</time>
      </trkpt>
      <trkpt lat="44.58054" lon="-0.20951">
        <ele>58.78</ele>
        <time>2018-05-13T09:44:52Z</time>
      </trkpt>
      <trkpt lat="44.58035" lon="-0.20948">
        <ele>57.82</ele>
        <time>2018-05-13T09:45:08Z</time>
      </trkpt>
      <trkpt lat="44.58016" lon="-0.20944">
        <ele>56.37</ele>
        <time>2018-05-13T09:45:24Z</time>
      </trkpt>
      <trkpt lat="44.58011" lon="-0.20942">
        <ele>55.89</ele>
        <time>2018-05-13T09:45:36Z</time>
      </trkpt>
      <trkpt lat="44.58008" lon="-0.20943">
        <ele>55.89</ele>
        <time>2018-05-13T09:45:48Z</time>
      </trkpt>
      <trkpt lat="44.58004" lon="-0.20943">
        <ele>55.89</ele>
        <time>2018-05-13T09:46:06Z</time>
      </trkpt>
      <trkpt lat="44.58004" lon="-0.20943">
        <ele>55.89</ele>
        <time>2018-05-13T09:46:29Z</time>
      </trkpt>
      <trkpt lat="44.58" lon="-0.20946">
        <ele>54.93</ele>
        <time>2018-05-13T09:46:42Z</time>
      </trkpt>
      <trkpt lat="44.57987" lon="-0.20942">
        <ele>54.45</ele>
        <time>2018-05-13T09:46:58Z</time>
      </trkpt>
      <trkpt lat="44.57984" lon="-0.20941">
        <ele>53.97</ele>
        <time>2018-05-13T09:47:05Z</time>
      </trkpt>
      <trkpt lat="44.57967" lon="-0.20931">
        <ele>53.49</ele>
        <time>2018-05-13T09:47:23Z</time>
      </trkpt>
      <trkpt lat="44.57953" lon="-0.20924">
        <ele>52.53</ele>
        <time>2018-05-13T09:47:39Z</time>
      </trkpt>
      <trkpt lat="44.57941" lon="-0.20918">
        <ele>51.57</ele>
        <time>2018-05-13T09:47:51Z</time>
      </trkpt>
      <trkpt lat="44.57924" lon="-0.20913">
        <ele>50.13</ele>
        <time>2018-05-13T09:48:07Z</time>
      </trkpt>
      <trkpt lat="44.57903" lon="-0.20909">
        <ele>48.68</ele>
        <time>2018-05-13T09:48:26Z</time>
      </trkpt>
      <trkpt lat="44.57881" lon="-0.20904">
        <ele>47.72</ele>
        <time>2018-05-13T09:48:45Z</time>
      </trkpt>
      <trkpt lat="44.5786" lon="-0.20904">
        <ele>46.76</ele>
        <time>2018-05-13T09:49:03Z</time>
      </trkpt>
      <trkpt lat="44.57841" lon="-0.20908">
        <ele>45.32</ele>
        <time>2018-05-13T09:49:20Z</time>
      </trkpt>
      <trkpt lat="44.57819" lon="-0.20916">
        <ele>43.88</ele>
        <time>2018-05-13T09:49:40Z</time>
      </trkpt>
      <trkpt lat="44.57799" lon="-0.2093">
        <ele>42.92</ele>
        <time>2018-05-13T09:49:59Z</time>
      </trkpt>
      <trkpt lat="44.57776" lon="-0.20942">
        <ele>41.47</ele>
        <time>2018-05-13T09:50:20Z</time>
      </trkpt>
      <trkpt lat="44.57756" lon="-0.20951">
        <ele>40.51</ele>
        <time>2018-05-13T09:50:38Z</time>
      </trkpt>
      <trkpt lat="44.5774" lon="-0.20962">
        <ele>39.55</ele>
        <time>2018-05-13T09:50:53Z</time>
      </trkpt>
      <trkpt lat="44.57732" lon="-0.20969">
        <ele>39.07</ele>
        <time>2018-05-13T09:51:00Z</time>
      </trkpt>
      <trkpt lat="44.57735" lon="-0.21003">
        <ele>39.07</ele>
        <time>2018-05-13T09:51:21Z</time>
      </trkpt>
      <trkpt lat="44.57744" lon="-0.2103">
        <ele>40.99</ele>
        <time>2018-05-13T09:51:39Z</time>
      </trkpt>
      <trkpt lat="44.57753" lon="-0.21054">
        <ele>41.95</ele>
        <time>2018-05-13T09:51:55Z</time>
      </trkpt>
      <trkpt lat="44.57762" lon="-0.2108">
        <ele>42.44</ele>
        <time>2018-05-13T09:52:11Z</time>
      </trkpt>
      <trkpt lat="44.57769" lon="-0.21108">
        <ele>42.92</ele>
        <time>2018-05-13T09:52:30Z</time>
      </trkpt>
      <trkpt lat="44.57766" lon="-0.21119">
        <ele>42.92</ele>
        <time>2018-05-13T09:52:44Z</time>
      </trkpt>
      <trkpt lat="44.5776" lon="-0.2112">
        <ele>42.92</ele>
        <time>2018-05-13T09:52:58Z</time>
      </trkpt>
      <trkpt lat="44.57748" lon="-0.2112">
        <ele>41.95</ele>
        <time>2018-05-13T09:53:09Z</time>
      </trkpt>
      <trkpt lat="44.5773" lon="-0.21129">
        <ele>40.99</ele>
        <time>2018-05-13T09:53:27Z</time>
      </trkpt>
      <trkpt lat="44.5771" lon="-0.21142">
        <ele>39.55</ele>
        <time>2018-05-13T09:53:46Z</time>
      </trkpt>
      <trkpt lat="44.57689" lon="-0.21151">
        <ele>39.07</ele>
        <time>2018-05-13T09:54:04Z</time>
      </trkpt>
      <trkpt lat="44.57679" lon="-0.21153">
        <ele>37.63</ele>
        <time>2018-05-13T09:54:14Z</time>
      </trkpt>
      <trkpt lat="44.57661" lon="-0.21154">
        <ele>36.67</ele>
        <time>2018-05-13T09:54:30Z</time>
      </trkpt>
      <trkpt lat="44.57643" lon="-0.21152">
        <ele>35.23</ele>
        <time>2018-05-13T09:54:46Z</time>
      </trkpt>
      <trkpt lat="44.57626" lon="-0.21153">
        <ele>34.26</ele>
        <time>2018-05-13T09:55:00Z</time>
      </trkpt>
      <trkpt lat="44.57606" lon="-0.21156">
        <ele>33.3</ele>
        <time>2018-05-13T09:55:17Z</time>
      </trkpt>
      <trkpt lat="44.57585" lon="-0.21164">
        <ele>32.34</ele>
        <time>2018-05-13T09:55:34Z</time>
      </trkpt>
      <trkpt lat="44.57561" lon="-0.21169">
        <ele>31.38</ele>
        <time>2018-05-13T09:55:52Z</time>
      </trkpt>
      <trkpt lat="44.57536" lon="-0.21173">
        <ele>30.42</ele>
        <time>2018-05-13T09:56:10Z</time>
      </trkpt>
      <trkpt lat="44.57511" lon="-0.21177">
        <ele>29.46</ele>
        <time>2018-05-13T09:56:29Z</time>
      </trkpt>
      <trkpt lat="44.57485" lon="-0.21189">
        <ele>28.98</ele>
        <time>2018-05-13T09:56:51Z</time>
      </trkpt>
      <trkpt lat="44.57471" lon="-0.21217">
        <ele>28.5</ele>
        <time>2018-05-13T09:57:11Z</time>
      </trkpt>
      <trkpt lat="44.57454" lon="-0.21244">
        <ele>27.53</ele>
        <time>2018-05-13T09:57:31Z</time>
      </trkpt>
      <trkpt lat="44.57432" lon="-0.21268">
        <ele>26.57</ele>
        <time>2018-05-13T09:57:52Z</time>
      </trkpt>
      <trkpt lat="44.57415" lon="-0.21287">
        <ele>25.61</ele>
        <time>2018-05-13T09:58:09Z</time>
      </trkpt>
      <trkpt lat="44.57396" lon="-0.21306">
        <ele>24.65</ele>
        <time>2018-05-13T09:58:28Z</time>
      </trkpt>
      <trkpt lat="44.57373" lon="-0.21324">
        <ele>24.65</ele>
        <time>2018-05-13T09:58:48Z</time>
      </trkpt>
      <trkpt lat="44.57353" lon="-0.21341">
        <ele>23.69</ele>
        <time>2018-05-13T09:59:07Z</time>
      </trkpt>
      <trkpt lat="44.57335" lon="-0.2136">
        <ele>23.21</ele>
        <time>2018-05-13T09:59:25Z</time>
      </trkpt>
      <trkpt lat="44.57318" lon="-0.21379">
        <ele>22.73</ele>
        <time>2018-05-13T09:59:42Z</time>
      </trkpt>
      <trkpt lat="44.573" lon="-0.214">
        <ele>22.73</ele>
        <time>2018-05-13T10:00:00Z</time>
      </trkpt>
      <trkpt lat="44.57284" lon="-0.21419">
        <ele>22.73</ele>
        <time>2018-05-13T10:00:17Z</time>
      </trkpt>
      <trkpt lat="44.57266" lon="-0.21439">
        <ele>22.25</ele>
        <time>2018-05-13T10:00:35Z</time>
      </trkpt>
      <trkpt lat="44.57254" lon="-0.21451">
        <ele>22.25</ele>
        <time>2018-05-13T10:00:48Z</time>
      </trkpt>
      <trkpt lat="44.57244" lon="-0.21439">
        <ele>21.29</ele>
        <time>2018-05-13T10:01:04Z</time>
      </trkpt>
      <trkpt lat="44.57242" lon="-0.21439">
        <ele>20.32</ele>
        <time>2018-05-13T10:01:07Z</time>
      </trkpt>
      <trkpt lat="44.57234" lon="-0.21465">
        <ele>18.88</ele>
        <time>2018-05-13T10:01:25Z</time>
      </trkpt>
      <trkpt lat="44.57233" lon="-0.21469">
        <ele>18.4</ele>
        <time>2018-05-13T10:01:28Z</time>
      </trkpt>
      <trkpt lat="44.57232" lon="-0.21478">
        <ele>17.92</ele>
        <time>2018-05-13T10:01:41Z</time>
      </trkpt>
      <trkpt lat="44.57231" lon="-0.21481">
        <ele>17.92</ele>
        <time>2018-05-13T10:01:44Z</time>
      </trkpt>
      <trkpt lat="44.57221" lon="-0.2149">
        <ele>17.44</ele>
        <time>2018-05-13T10:01:57Z</time>
      </trkpt>
      <trkpt lat="44.57205" lon="-0.21478">
        <ele>16.48</ele>
        <time>2018-05-13T10:02:15Z</time>
      </trkpt>
      <trkpt lat="44.57181" lon="-0.21461">
        <ele>16</ele>
        <time>2018-05-13T10:02:37Z</time>
      </trkpt>
      <trkpt lat="44.57161" lon="-0.21447">
        <ele>15.52</ele>
        <time>2018-05-13T10:02:55Z</time>
      </trkpt>
      <trkpt lat="44.57145" lon="-0.21436">
        <ele>15.04</ele>
        <time>2018-05-13T10:03:10Z</time>
      </trkpt>
      <trkpt lat="44.57128" lon="-0.21423">
        <ele>14.56</ele>
        <time>2018-05-13T10:03:26Z</time>
      </trkpt>
      <trkpt lat="44.57106" lon="-0.21408">
        <ele>14.56</ele>
        <time>2018-05-13T10:03:44Z</time>
      </trkpt>
      <trkpt lat="44.57086" lon="-0.21403">
        <ele>16.96</ele>
        <time>2018-05-13T10:04:01Z</time>
      </trkpt>
      <trkpt lat="44.57065" lon="-0.21411">
        <ele>16.96</ele>
        <time>2018-05-13T10:04:20Z</time>
      </trkpt>
      <trkpt lat="44.57063" lon="-0.21417">
        <ele>17.44</ele>
        <time>2018-05-13T10:04:34Z</time>
      </trkpt>
      <trkpt lat="44.57061" lon="-0.21419">
        <ele>17.44</ele>
        <time>2018-05-13T10:04:46Z</time>
      </trkpt>
      <trkpt lat="44.57045" lon="-0.21418">
        <ele>17.44</ele>
        <time>2018-05-13T10:05:01Z</time>
      </trkpt>
      <trkpt lat="44.57026" lon="-0.21412">
        <ele>17.44</ele>
        <time>2018-05-13T10:05:18Z</time>
      </trkpt>
      <trkpt lat="44.57012" lon="-0.2143">
        <ele>15.52</ele>
        <time>2018-05-13T10:05:35Z</time>
      </trkpt>
      <trkpt lat="44.57009" lon="-0.21454">
        <ele>14.56</ele>
        <time>2018-05-13T10:05:52Z</time>
      </trkpt>
      <trkpt lat="44.57003" lon="-0.21482">
        <ele>14.08</ele>
        <time>2018-05-13T10:06:07Z</time>
      </trkpt>
      <trkpt lat="44.56997" lon="-0.21511">
        <ele>14.08</ele>
        <time>2018-05-13T10:06:24Z</time>
      </trkpt>
      <trkpt lat="44.56994" lon="-0.21541">
        <ele>14.08</ele>
        <time>2018-05-13T10:06:42Z</time>
      </trkpt>
      <trkpt lat="44.56994" lon="-0.21571">
        <ele>16</ele>
        <time>2018-05-13T10:07:00Z</time>
      </trkpt>
      <trkpt lat="44.57001" lon="-0.21596">
        <ele>16.96</ele>
        <time>2018-05-13T10:07:17Z</time>
      </trkpt>
      <trkpt lat="44.57" lon="-0.21601">
        <ele>16.96</ele>
        <time>2018-05-13T10:07:23Z</time>
      </trkpt>
      <trkpt lat="44.56984" lon="-0.21622">
        <ele>16.96</ele>
        <time>2018-05-13T10:07:43Z</time>
      </trkpt>
      <trkpt lat="44.56974" lon="-0.21642">
        <ele>16.96</ele>
        <time>2018-05-13T10:07:58Z</time>
      </trkpt>
      <trkpt lat="44.5697" lon="-0.21647">
        <ele>16.96</ele>
        <time>2018-05-13T10:08:02Z</time>
      </trkpt>
      <trkpt lat="44.56959" lon="-0.2167">
        <ele>16.96</ele>
        <time>2018-05-13T10:08:18Z</time>
      </trkpt>
      <trkpt lat="44.56956" lon="-0.21678">
        <ele>16.96</ele>
        <time>2018-05-13T10:08:24Z</time>
      </trkpt>
      <trkpt lat="44.56948" lon="-0.21691">
        <ele>16.96</ele>
        <time>2018-05-13T10:08:34Z</time>
      </trkpt>
      <trkpt lat="44.56943" lon="-0.21698">
        <ele>16.96</ele>
        <time>2018-05-13T10:08:40Z</time>
      </trkpt>
      <trkpt lat="44.56937" lon="-0.21714">
        <ele>16.96</ele>
        <time>2018-05-13T10:08:51Z</time>
      </trkpt>
      <trkpt lat="44.56925" lon="-0.21738">
        <ele>16</ele>
        <time>2018-05-13T10:09:08Z</time>
      </trkpt>
      <trkpt lat="44.56912" lon="-0.21765">
        <ele>15.52</ele>
        <time>2018-05-13T10:09:25Z</time>
      </trkpt>
      <trkpt lat="44.56901" lon="-0.21788">
        <ele>15.52</ele>
        <time>2018-05-13T10:09:41Z</time>
      </trkpt>
      <trkpt lat="44.56887" lon="-0.21813">
        <ele>15.52</ele>
        <time>2018-05-13T10:09:58Z</time>
      </trkpt>
      <trkpt lat="44.56874" lon="-0.2184">
        <ele>15.52</ele>
        <time>2018-05-13T10:10:17Z</time>
      </trkpt>
      <trkpt lat="44.5686" lon="-0.21867">
        <ele>15.52</ele>
        <time>2018-05-13T10:10:35Z</time>
      </trkpt>
      <trkpt lat="44.56847" lon="-0.2189">
        <ele>15.04</ele>
        <time>2018-05-13T10:10:51Z</time>
      </trkpt>
      <trkpt lat="44.56837" lon="-0.21908">
        <ele>15.04</ele>
        <time>2018-05-13T10:11:07Z</time>
      </trkpt>
      <trkpt lat="44.56834" lon="-0.21917">
        <ele>15.04</ele>
        <time>2018-05-13T10:11:14Z</time>
      </trkpt>
      <trkpt lat="44.56832" lon="-0.21921">
        <ele>15.04</ele>
        <time>2018-05-13T10:11:17Z</time>
      </trkpt>
      <trkpt lat="44.5683" lon="-0.21925">
        <ele>15.04</ele>
        <time>2018-05-13T10:11:21Z</time>
      </trkpt>
      <trkpt lat="44.5682" lon="-0.21942">
        <ele>15.04</ele>
        <time>2018-05-13T10:11:34Z</time>
      </trkpt>
      <trkpt lat="44.56815" lon="-0.21952">
        <ele>14.56</ele>
        <time>2018-05-13T10:11:40Z</time>
      </trkpt>
      <trkpt lat="44.56799" lon="-0.21985">
        <ele>15.04</ele>
        <time>2018-05-13T10:12:01Z</time>
      </trkpt>
      <trkpt lat="44.56789" lon="-0.22005">
        <ele>15.04</ele>
        <time>2018-05-13T10:12:15Z</time>
      </trkpt>
      <trkpt lat="44.56776" lon="-0.22027">
        <ele>15.04</ele>
        <time>2018-05-13T10:12:31Z</time>
      </trkpt>
      <trkpt lat="44.56764" lon="-0.22054">
        <ele>15.04</ele>
        <time>2018-05-13T10:12:49Z</time>
      </trkpt>
      <trkpt lat="44.56755" lon="-0.22079">
        <ele>15.04</ele>
        <time>2018-05-13T10:13:06Z</time>
      </trkpt>
      <trkpt lat="44.56749" lon="-0.22101">
        <ele>15.04</ele>
        <time>2018-05-13T10:13:24Z</time>
      </trkpt>
      <trkpt lat="44.5674" lon="-0.22129">
        <ele>15.52</ele>
        <time>2018-05-13T10:13:42Z</time>
      </trkpt>
      <trkpt lat="44.56733" lon="-0.22149">
        <ele>15.52</ele>
        <time>2018-05-13T10:13:57Z</time>
      </trkpt>
      <trkpt lat="44.56731" lon="-0.22166">
        <ele>16</ele>
        <time>2018-05-13T10:14:12Z</time>
      </trkpt>
      <trkpt lat="44.56723" lon="-0.22189">
        <ele>16</ele>
        <time>2018-05-13T10:14:26Z</time>
      </trkpt>
      <trkpt lat="44.56713" lon="-0.22214">
        <ele>16</ele>
        <time>2018-05-13T10:14:40Z</time>
      </trkpt>
      <trkpt lat="44.56704" lon="-0.22237">
        <ele>16.48</ele>
        <time>2018-05-13T10:14:53Z</time>
      </trkpt>
      <trkpt lat="44.56698" lon="-0.22254">
        <ele>16.96</ele>
        <time>2018-05-13T10:15:07Z</time>
      </trkpt>
      <trkpt lat="44.56696" lon="-0.22256">
        <ele>17.92</ele>
        <time>2018-05-13T10:15:09Z</time>
      </trkpt>
      <trkpt lat="44.56692" lon="-0.22261">
        <ele>17.92</ele>
        <time>2018-05-13T10:15:13Z</time>
      </trkpt>
      <trkpt lat="44.56684" lon="-0.2226">
        <ele>18.4</ele>
        <time>2018-05-13T10:15:18Z</time>
      </trkpt>
      <trkpt lat="44.56672" lon="-0.22271">
        <ele>18.88</ele>
        <time>2018-05-13T10:15:29Z</time>
      </trkpt>
      <trkpt lat="44.5667" lon="-0.22287">
        <ele>19.36</ele>
        <time>2018-05-13T10:15:34Z</time>
      </trkpt>
      <trkpt lat="44.56665" lon="-0.22303">
        <ele>19.36</ele>
        <time>2018-05-13T10:15:40Z</time>
      </trkpt>
      <trkpt lat="44.56663" lon="-0.2231">
        <ele>19.36</ele>
        <time>2018-05-13T10:15:44Z</time>
      </trkpt>
      <trkpt lat="44.56659" lon="-0.22317">
        <ele>19.84</ele>
        <time>2018-05-13T10:15:48Z</time>
      </trkpt>
      <trkpt lat="44.56652" lon="-0.22323">
        <ele>20.81</ele>
        <time>2018-05-13T10:15:56Z</time>
      </trkpt>
      <trkpt lat="44.56648" lon="-0.22331">
        <ele>20.81</ele>
        <time>2018-05-13T10:16:01Z</time>
      </trkpt>
      <trkpt lat="44.56641" lon="-0.22361">
        <ele>21.77</ele>
        <time>2018-05-13T10:16:16Z</time>
      </trkpt>
      <trkpt lat="44.56637" lon="-0.22389">
        <ele>22.25</ele>
        <time>2018-05-13T10:16:30Z</time>
      </trkpt>
      <trkpt lat="44.5663" lon="-0.22408">
        <ele>23.21</ele>
        <time>2018-05-13T10:16:43Z</time>
      </trkpt>
      <trkpt lat="44.5662" lon="-0.22433">
        <ele>24.65</ele>
        <time>2018-05-13T10:17:00Z</time>
      </trkpt>
      <trkpt lat="44.56615" lon="-0.22458">
        <ele>25.13</ele>
        <time>2018-05-13T10:17:15Z</time>
      </trkpt>
      <trkpt lat="44.56606" lon="-0.22462">
        <ele>25.61</ele>
        <time>2018-05-13T10:17:27Z</time>
      </trkpt>
      <trkpt lat="44.56603" lon="-0.22464">
        <ele>25.61</ele>
        <time>2018-05-13T10:17:30Z</time>
      </trkpt>
      <trkpt lat="44.566" lon="-0.22469">
        <ele>25.61</ele>
        <time>2018-05-13T10:17:33Z</time>
      </trkpt>
      <trkpt lat="44.56588" lon="-0.22484">
        <ele>27.05</ele>
        <time>2018-05-13T10:17:48Z</time>
      </trkpt>
      <trkpt lat="44.56579" lon="-0.22498">
        <ele>27.53</ele>
        <time>2018-05-13T10:18:02Z</time>
      </trkpt>
      <trkpt lat="44.56579" lon="-0.22501">
        <ele>28.02</ele>
        <time>2018-05-13T10:18:04Z</time>
      </trkpt>
      <trkpt lat="44.56566" lon="-0.22516">
        <ele>28.98</ele>
        <time>2018-05-13T10:18:20Z</time>
      </trkpt>
      <trkpt lat="44.5656" lon="-0.22525">
        <ele>28.98</ele>
        <time>2018-05-13T10:18:26Z</time>
      </trkpt>
      <trkpt lat="44.5656" lon="-0.22527">
        <ele>28.98</ele>
        <time>2018-05-13T10:18:28Z</time>
      </trkpt>
      <trkpt lat="44.56544" lon="-0.22543">
        <ele>29.94</ele>
        <time>2018-05-13T10:18:47Z</time>
      </trkpt>
      <trkpt lat="44.56538" lon="-0.22552">
        <ele>30.9</ele>
        <time>2018-05-13T10:19:00Z</time>
      </trkpt>
      <trkpt lat="44.56524" lon="-0.22571">
        <ele>32.34</ele>
        <time>2018-05-13T10:19:16Z</time>
      </trkpt>
      <trkpt lat="44.56516" lon="-0.22581">
        <ele>32.82</ele>
        <time>2018-05-13T10:19:24Z</time>
      </trkpt>
      <trkpt lat="44.56491" lon="-0.22586">
        <ele>32.82</ele>
        <time>2018-05-13T10:19:43Z</time>
      </trkpt>
      <trkpt lat="44.56483" lon="-0.22577">
        <ele>32.82</ele>
        <time>2018-05-13T10:19:53Z</time>
      </trkpt>
      <trkpt lat="44.56473" lon="-0.22551">
        <ele>33.3</ele>
        <time>2018-05-13T10:20:09Z</time>
      </trkpt>
      <trkpt lat="44.5647" lon="-0.22547">
        <ele>33.3</ele>
        <time>2018-05-13T10:20:13Z</time>
      </trkpt>
      <trkpt lat="44.56467" lon="-0.22545">
        <ele>33.3</ele>
        <time>2018-05-13T10:20:16Z</time>
      </trkpt>
      <trkpt lat="44.56463" lon="-0.22541">
        <ele>31.86</ele>
        <time>2018-05-13T10:20:21Z</time>
      </trkpt>
      <trkpt lat="44.5645" lon="-0.22526">
        <ele>31.38</ele>
        <time>2018-05-13T10:20:35Z</time>
      </trkpt>
      <trkpt lat="44.56445" lon="-0.22518">
        <ele>31.38</ele>
        <time>2018-05-13T10:20:41Z</time>
      </trkpt>
      <trkpt lat="44.56436" lon="-0.22511">
        <ele>30.9</ele>
        <time>2018-05-13T10:20:49Z</time>
      </trkpt>
      <trkpt lat="44.56431" lon="-0.22502">
        <ele>31.38</ele>
        <time>2018-05-13T10:20:56Z</time>
      </trkpt>
      <trkpt lat="44.56429" lon="-0.22495">
        <ele>30.9</ele>
        <time>2018-05-13T10:21:09Z</time>
      </trkpt>
      <trkpt lat="44.56428" lon="-0.22491">
        <ele>29.94</ele>
        <time>2018-05-13T10:21:15Z</time>
      </trkpt>
      <trkpt lat="44.5641" lon="-0.22477">
        <ele>28.02</ele>
        <time>2018-05-13T10:21:29Z</time>
      </trkpt>
      <trkpt lat="44.56404" lon="-0.22465">
        <ele>24.65</ele>
        <time>2018-05-13T10:21:43Z</time>
      </trkpt>
      <trkpt lat="44.56396" lon="-0.22478">
        <ele>22.73</ele>
        <time>2018-05-13T10:21:55Z</time>
      </trkpt>
      <trkpt lat="44.56388" lon="-0.22487">
        <ele>20.81</ele>
        <time>2018-05-13T10:22:06Z</time>
      </trkpt>
      <trkpt lat="44.5638" lon="-0.2249">
        <ele>18.4</ele>
        <time>2018-05-13T10:22:17Z</time>
      </trkpt>
      <trkpt lat="44.56371" lon="-0.22485">
        <ele>17.44</ele>
        <time>2018-05-13T10:22:31Z</time>
      </trkpt>
      <trkpt lat="44.5637" lon="-0.22483">
        <ele>17.44</ele>
        <time>2018-05-13T10:22:33Z</time>
      </trkpt>
      <trkpt lat="44.56364" lon="-0.22468">
        <ele>16.96</ele>
        <time>2018-05-13T10:22:48Z</time>
      </trkpt>
      <trkpt lat="44.56363" lon="-0.22466">
        <ele>17.92</ele>
        <time>2018-05-13T10:22:58Z</time>
      </trkpt>
      <trkpt lat="44.56362" lon="-0.22466">
        <ele>16.48</ele>
        <time>2018-05-13T10:23:01Z</time>
      </trkpt>
      <trkpt lat="44.56362" lon="-0.22467">
        <ele>16.48</ele>
        <time>2018-05-13T10:23:16Z</time>
      </trkpt>
    </trkseg>
  </trk>
</gpx>